Data Archive--January, 2006

Date Time Heat Index Current Temp Wind Chill High Temp Low Temp Humidity Dew Point Wind Speed Gust Wind Direction Rain Barometer
01/01/2006 12:00 a 32.1 32.1 32.1 32.1 32.0 94 30.6 0.0 0.0 --- 0.00 29.697
01/01/2006 12:10 a 32.0 32.0 32.0 32.0 31.9 94 30.5 0.0 0.0 --- 0.00 29.697
01/01/2006 12:20 a 31.9 31.9 31.9 32.0 31.9 94 30.4 0.0 0.0 --- 0.00 29.695
01/01/2006 12:30 a 31.9 31.9 31.9 32.0 31.9 94 30.4 0.0 0.0 --- 0.00 29.697
01/01/2006 12:40 a 31.8 31.8 31.8 31.9 31.7 94 30.3 0.0 0.0 --- 0.00 29.695
01/01/2006 12:50 a 31.6 31.6 31.6 31.7 31.4 94 30.1 0.0 0.0 --- 0.00 29.701
01/01/2006 1:00 a 31.3 31.3 31.3 31.4 31.2 93 29.5 0.0 0.0 --- 0.00 29.707
01/01/2006 1:10 a 31.1 31.1 31.1 31.3 31.0 94 29.6 0.0 0.0 --- 0.00 29.712
01/01/2006 1:20 a 31.0 31.0 31.0 31.0 31.0 94 29.5 0.0 0.0 --- 0.00 29.711
01/01/2006 1:30 a 31.0 31.0 31.0 31.0 30.9 94 29.5 0.0 0.0 --- 0.00 29.709
01/01/2006 1:40 a 30.8 30.8 30.8 30.9 30.8 94 29.3 0.0 0.0 --- 0.00 29.716
01/01/2006 1:50 a 30.7 30.7 30.7 30.8 30.6 94 29.2 0.0 0.0 --- 0.00 29.720
01/01/2006 2:00 a 30.5 30.5 30.5 30.6 30.4 94 29.0 0.0 0.0 --- 0.00 29.726
01/01/2006 2:10 a 30.3 30.3 30.3 30.4 30.2 94 28.8 0.0 0.0 --- 0.00 29.732
01/01/2006 2:20 a 30.2 30.2 30.2 30.3 30.2 94 28.7 0.0 0.0 --- 0.00 29.739
01/01/2006 2:30 a 30.2 30.2 30.2 30.2 30.1 94 28.7 0.0 0.0 --- 0.00 29.742
01/01/2006 2:40 a 30.1 30.1 30.1 30.2 30.1 94 28.6 0.0 0.0 --- 0.00 29.748
01/01/2006 2:50 a 30.1 30.1 30.1 30.2 30.1 95 28.8 0.0 0.0 --- 0.00 29.753
01/01/2006 3:00 a 30.1 30.1 30.1 30.1 30.1 94 28.6 0.0 0.0 --- 0.00 29.759
01/01/2006 3:10 a 30.1 30.1 30.1 30.1 30.0 95 28.8 0.0 0.0 --- 0.00 29.764
01/01/2006 3:20 a 30.2 30.2 30.2 30.2 30.1 95 28.9 0.0 0.0 --- 0.00 29.766
01/01/2006 3:30 a 30.1 30.1 30.1 30.2 30.1 95 28.8 0.0 0.0 --- 0.00 29.770
01/01/2006 3:40 a 30.1 30.1 30.1 30.2 30.1 95 28.8 0.0 0.0 --- 0.00 29.777
01/01/2006 3:50 a 30.1 30.1 30.1 30.1 30.0 95 28.8 0.0 0.0 --- 0.00 29.777
01/01/2006 4:00 a 29.9 29.9 29.9 30.0 29.7 95 28.6 0.0 0.0 --- 0.00 29.776
01/01/2006 4:10 a 29.7 29.7 29.7 29.8 29.6 94 28.2 0.0 0.0 --- 0.00 29.781
01/01/2006 4:20 a 29.5 29.5 29.5 29.6 29.4 94 28.0 0.0 0.0 --- 0.00 29.784
01/01/2006 4:30 a 29.3 29.3 29.3 29.4 29.2 94 27.8 0.0 0.0 --- 0.00 29.787
01/01/2006 4:40 a 29.3 29.3 29.3 29.4 29.2 95 28.0 0.0 0.0 --- 0.00 29.789
01/01/2006 4:50 a 29.4 29.4 29.4 29.4 29.4 95 28.1 0.0 0.0 --- 0.00 29.792
01/01/2006 5:00 a 29.5 29.5 29.5 29.5 29.4 96 28.5 0.0 0.0 --- 0.00 29.797
01/01/2006 5:10 a 29.4 29.4 29.4 29.5 29.4 96 28.4 0.0 0.0 --- 0.00 29.802
01/01/2006 5:20 a 29.5 29.5 29.5 29.5 29.4 96 28.5 0.0 0.0 --- 0.00 29.802
01/01/2006 5:30 a 29.6 29.6 29.6 29.6 29.5 96 28.6 0.0 0.0 --- 0.00 29.804
01/01/2006 5:40 a 29.6 29.6 29.6 29.6 29.6 96 28.6 0.0 0.0 --- 0.00 29.808
01/01/2006 5:50 a 29.6 29.6 29.6 29.8 29.6 96 28.6 0.0 0.0 --- 0.00 29.812
01/01/2006 6:00 a 29.8 29.8 29.8 29.9 29.7 96 28.8 0.0 0.0 --- 0.00 29.814
01/01/2006 6:10 a 29.9 29.9 29.9 30.0 29.9 96 28.9 0.0 0.0 --- 0.00 29.814
01/01/2006 6:20 a 30.2 30.2 30.2 30.3 30.0 97 29.5 0.0 0.0 --- 0.00 29.813
01/01/2006 6:30 a 30.4 30.4 30.4 30.5 30.3 97 29.7 0.0 0.0 --- 0.00 29.814
01/01/2006 6:40 a 30.6 30.6 30.6 30.7 30.5 97 29.9 0.0 0.0 --- 0.00 29.818
01/01/2006 6:50 a 30.8 30.8 30.8 30.9 30.7 97 30.1 0.0 0.0 --- 0.00 29.823
01/01/2006 7:00 a 31.0 31.0 31.0 31.1 30.9 97 30.2 0.0 0.0 --- 0.00 29.823
01/01/2006 7:10 a 31.2 31.2 31.2 31.3 31.1 97 30.4 0.0 0.0 --- 0.00 29.831
01/01/2006 7:20 a 31.3 31.3 31.3 31.3 31.2 97 30.5 0.0 0.0 --- 0.00 29.832
01/01/2006 7:30 a 31.3 31.3 31.3 31.4 31.3 97 30.5 0.0 0.0 --- 0.00 29.833
01/01/2006 7:40 a 31.4 31.4 31.4 31.5 31.3 97 30.6 0.0 0.0 --- 0.00 29.836
01/01/2006 7:50 a 31.6 31.6 31.6 31.6 31.5 97 30.8 0.0 0.0 --- 0.00 29.836
01/01/2006 8:00 a 31.6 31.6 31.6 31.6 31.6 97 30.8 0.0 0.0 --- 0.00 29.834
01/01/2006 8:10 a 31.6 31.6 31.6 31.7 31.6 97 30.8 0.0 0.0 --- 0.00 29.843
01/01/2006 8:20 a 31.7 31.7 31.7 31.8 31.7 97 30.9 0.0 0.0 --- 0.00 29.848
01/01/2006 8:30 a 31.8 31.8 31.8 31.9 31.8 97 31.0 0.0 0.0 --- 0.00 29.855
01/01/2006 8:40 a 31.9 31.9 31.9 31.9 31.8 97 31.1 0.0 0.0 --- 0.00 29.862
01/01/2006 8:50 a 31.9 31.9 31.9 31.9 31.8 97 31.1 0.0 0.0 --- 0.00 29.865
01/01/2006 9:00 a 31.9 31.9 31.9 32.0 31.8 97 31.1 0.0 0.0 --- 0.00 29.863
01/01/2006 9:10 a 32.1 32.1 32.1 32.2 31.9 97 31.3 0.0 0.0 --- 0.00 29.868
01/01/2006 9:20 a 32.4 32.4 32.4 32.5 32.2 97 31.6 0.0 0.0 --- 0.00 29.875
01/01/2006 9:30 a 32.7 32.7 32.7 33.0 32.5 98 32.2 0.0 0.0 --- 0.00 29.881
01/01/2006 9:40 a 33.1 33.1 33.1 33.3 33.0 98 32.6 0.0 0.0 --- 0.00 29.885
01/01/2006 9:50 a 33.6 33.6 33.6 33.8 33.3 98 33.1 0.0 0.0 --- 0.00 29.890
01/01/2006 10:00 a 34.0 34.0 34.0 34.3 33.8 98 33.5 0.0 0.0 --- 0.00 29.897
01/01/2006 10:10 a 34.6 34.6 34.6 34.8 34.3 98 34.1 0.0 0.0 --- 0.00 29.896
01/01/2006 10:20 a 35.2 35.2 35.2 35.6 34.8 98 34.7 0.0 0.0 --- 0.00 29.905
01/01/2006 10:30 a 36.0 36.0 36.0 36.3 35.6 95 34.7 0.0 0.0 --- 0.00 29.911
01/01/2006 10:40 a 36.7 36.7 36.7 37.0 36.3 94 35.1 0.0 0.0 --- 0.00 29.915
01/01/2006 10:50 a 37.4 37.4 37.4 37.8 37.1 92 35.3 0.0 0.0 --- 0.00 29.911
01/01/2006 11:00 a 38.1 38.1 38.1 38.4 37.8 90 35.4 0.0 0.0 --- 0.00 29.916
01/01/2006 11:10 a 38.7 38.7 38.7 39.0 38.4 88 35.5 0.0 0.0 --- 0.00 29.923
01/01/2006 11:20 a 39.2 39.2 39.2 39.3 39.0 87 35.7 0.0 0.0 --- 0.00 29.924
01/01/2006 11:30 a 39.5 39.5 39.5 39.7 39.3 86 35.7 0.0 1.0 SW 0.00 29.925
01/01/2006 11:40 a 39.7 39.7 39.7 39.8 39.6 85 35.6 0.0 1.0 SW 0.00 29.927
01/01/2006 11:50 a 39.8 39.8 39.8 39.9 39.7 85 35.7 0.0 3.0 NNW 0.00 29.926
01/01/2006 12:00 p 39.9 39.9 39.9 40.0 39.8 84 35.5 0.0 0.0 --- 0.00 29.926
01/01/2006 12:10 p 40.1 40.1 40.1 40.2 40.0 85 36.0 0.0 0.0 --- 0.00 29.928
01/01/2006 12:20 p 40.3 40.3 40.3 40.5 40.2 82 35.3 0.0 3.0 SSE 0.00 29.932
01/01/2006 12:30 p 40.5 40.5 40.5 40.6 40.4 82 35.4 0.0 3.0 SE 0.00 29.930
01/01/2006 12:40 p 40.7 40.7 40.7 40.8 40.6 82 35.6 0.0 3.0 SE 0.00 29.932
01/01/2006 12:50 p 40.9 40.9 40.9 41.0 40.8 82 35.8 0.0 3.0 SE 0.00 29.932
01/01/2006 1:00 p 41.2 41.2 41.2 41.3 41.0 80 35.5 0.0 1.0 SE 0.00 29.922
01/01/2006 1:10 p 41.4 41.4 41.4 41.6 41.3 79 35.4 0.0 2.0 SE 0.00 29.920
01/01/2006 1:20 p 41.7 41.7 41.7 41.8 41.5 77 35.0 0.0 2.0 SE 0.00 29.925
01/01/2006 1:30 p 41.9 41.9 41.9 42.0 41.8 77 35.2 0.0 4.0 SE 0.00 29.924
01/01/2006 1:40 p 42.1 42.1 42.1 42.2 42.0 77 35.4 0.0 1.0 SE 0.00 29.928
01/01/2006 1:50 p 42.3 42.3 42.3 42.4 42.2 75 35.0 0.0 2.0 SE 0.00 29.926
01/01/2006 2:00 p 42.5 42.5 42.5 42.6 42.4 74 34.8 0.0 2.0 E 0.00 29.924
01/01/2006 2:10 p 42.7 42.7 42.7 42.7 42.6 72 34.3 0.0 2.0 E 0.00 29.933
01/01/2006 2:20 p 42.7 42.7 42.7 42.8 42.7 74 35.0 0.0 2.0 E 0.00 29.934
01/01/2006 2:30 p 42.8 42.8 42.8 42.8 42.7 74 35.1 0.0 0.0 --- 0.00 29.937
01/01/2006 2:40 p 42.7 42.7 42.7 42.8 42.7 73 34.7 0.0 2.0 NE 0.00 29.940
01/01/2006 2:50 p 42.7 42.7 42.7 42.7 42.7 74 35.0 0.0 2.0 NNE 0.00 29.945
01/01/2006 3:00 p 42.7 42.7 42.7 42.7 42.6 73 34.7 0.0 0.0 --- 0.00 29.947
01/01/2006 3:10 p 42.5 42.5 42.5 42.6 42.5 73 34.5 0.0 0.0 --- 0.00 29.950
01/01/2006 3:20 p 42.4 42.4 42.4 42.5 42.4 73 34.4 0.0 1.0 --- 0.00 29.952
01/01/2006 3:30 p 42.3 42.3 42.3 42.4 42.3 73 34.3 0.0 1.0 ENE 0.00 29.954
01/01/2006 3:40 p 42.3 42.3 42.3 42.3 42.2 74 34.6 0.0 0.0 --- 0.00 29.961
01/01/2006 3:50 p 42.2 42.2 42.2 42.2 42.1 72 33.8 0.0 3.0 ENE 0.00 29.965
01/01/2006 4:00 p 42.0 42.0 42.0 42.1 42.0 74 34.3 0.0 0.0 --- 0.00 29.967
01/01/2006 4:10 p 41.9 41.9 41.9 42.0 41.8 74 34.2 0.0 2.0 NNE 0.00 29.974
01/01/2006 4:20 p 41.7 41.7 41.7 41.8 41.6 73 33.7 0.0 2.0 E 0.00 29.976
01/01/2006 4:30 p 41.5 41.5 41.5 41.6 41.5 74 33.8 0.0 1.0 E 0.00 29.983
01/01/2006 4:40 p 41.4 41.4 41.4 41.5 41.3 75 34.1 0.0 0.0 --- 0.00 29.981
01/01/2006 4:50 p 41.3 41.3 41.3 41.3 41.2 75 34.0 0.0 1.0 E 0.00 29.985
01/01/2006 5:00 p 41.2 41.2 41.2 41.2 41.1 75 33.9 0.0 2.0 E 0.00 29.991
01/01/2006 5:10 p 41.1 41.1 41.1 41.1 41.0 76 34.1 0.0 0.0 --- 0.00 29.993
01/01/2006 5:20 p 40.9 40.9 40.9 41.0 40.8 77 34.3 0.0 0.0 --- 0.00 30.000
01/01/2006 5:30 p 40.7 40.7 40.7 40.8 40.6 77 34.1 0.0 2.0 E 0.00 30.005
01/01/2006 5:40 p 40.5 40.5 40.5 40.6 40.4 77 33.9 0.0 0.0 --- 0.00 30.010
01/01/2006 5:50 p 40.3 40.3 40.3 40.4 40.2 77 33.7 0.0 0.0 --- 0.00 30.013
01/01/2006 6:00 p 40.1 40.1 40.1 40.2 40.0 77 33.5 0.0 0.0 --- 0.00 30.011
01/01/2006 6:10 p 39.9 39.9 39.9 40.0 39.8 78 33.6 0.0 0.0 --- 0.00 30.016
01/01/2006 6:20 p 39.6 39.6 39.6 39.8 39.4 78 33.3 0.0 0.0 --- 0.00 30.020
01/01/2006 6:30 p 39.3 39.3 39.3 39.4 39.1 78 33.0 0.0 0.0 --- 0.00 30.020
01/01/2006 6:40 p 39.0 39.0 39.0 39.1 38.8 81 33.7 0.0 0.0 --- 0.00 30.025
01/01/2006 6:50 p 38.6 38.6 38.6 38.8 38.3 81 33.3 0.0 0.0 --- 0.00 30.023
01/01/2006 7:00 p 38.0 38.0 38.0 38.3 37.7 82 33.0 0.0 0.0 --- 0.00 30.026
01/01/2006 7:10 p 37.5 37.5 37.5 37.7 37.3 83 32.8 0.0 0.0 --- 0.00 30.031
01/01/2006 7:20 p 37.0 37.0 37.0 37.3 36.7 84 32.6 0.0 0.0 --- 0.00 30.032
01/01/2006 7:30 p 36.4 36.4 36.4 36.7 36.2 85 32.3 0.0 0.0 --- 0.00 30.037
01/01/2006 7:40 p 36.0 36.0 36.0 36.2 35.8 86 32.2 0.0 0.0 --- 0.00 30.039
01/01/2006 7:50 p 35.6 35.6 35.6 35.8 35.5 87 32.1 0.0 0.0 --- 0.00 30.041
01/01/2006 8:00 p 35.5 35.5 35.5 35.6 35.4 87 32.0 0.0 0.0 --- 0.00 30.040
01/01/2006 8:10 p 35.5 35.5 35.5 35.5 35.4 88 32.3 0.0 0.0 --- 0.00 30.043
01/01/2006 8:20 p 35.5 35.5 35.5 35.6 35.5 88 32.3 0.0 0.0 --- 0.00 30.045
01/01/2006 8:30 p 35.6 35.6 35.6 35.6 35.5 88 32.4 0.0 0.0 --- 0.00 30.048
01/01/2006 8:40 p 35.5 35.5 35.5 35.6 35.4 88 32.3 0.0 0.0 --- 0.00 30.050
01/01/2006 8:50 p 35.4 35.4 35.4 35.4 35.3 88 32.2 0.0 0.0 --- 0.00 30.050
01/01/2006 9:00 p 35.3 35.3 35.3 35.3 35.2 89 32.4 0.0 0.0 --- 0.00 30.047
01/01/2006 9:10 p 35.1 35.1 35.1 35.2 34.9 89 32.2 0.0 0.0 --- 0.00 30.045
01/01/2006 9:20 p 34.8 34.8 34.8 34.9 34.6 89 31.9 0.0 0.0 --- 0.00 30.046
01/01/2006 9:30 p 34.4 34.4 34.4 34.6 34.2 89 31.5 0.0 0.0 --- 0.00 30.043
01/01/2006 9:40 p 34.1 34.1 34.1 34.2 33.9 89 31.2 0.0 0.0 --- 0.00 30.044
01/01/2006 9:50 p 33.7 33.7 33.7 33.9 33.5 90 31.1 0.0 0.0 --- 0.00 30.049
01/01/2006 10:00 p 33.3 33.3 33.3 33.5 33.0 90 30.7 0.0 0.0 --- 0.00 30.052
01/01/2006 10:10 p 32.8 32.8 32.8 33.1 32.6 91 30.5 0.0 0.0 --- 0.00 30.059
01/01/2006 10:20 p 32.5 32.5 32.5 32.7 32.4 91 30.2 0.0 0.0 --- 0.00 30.057
01/01/2006 10:30 p 32.2 32.2 32.2 32.4 32.0 91 29.9 0.0 0.0 --- 0.00 30.059
01/01/2006 10:40 p 31.9 31.9 31.9 32.1 31.8 91 29.6 0.0 0.0 --- 0.00 30.066
01/01/2006 10:50 p 31.7 31.7 31.7 31.8 31.6 92 29.6 0.0 0.0 --- 0.00 30.068
01/01/2006 11:00 p 31.8 31.8 31.8 31.9 31.7 93 30.0 0.0 0.0 --- 0.00 30.073
01/01/2006 11:10 p 31.8 31.8 31.8 31.9 31.6 92 29.7 0.0 0.0 --- 0.00 30.070
01/01/2006 11:20 p 31.4 31.4 31.4 31.6 31.2 92 29.3 0.0 0.0 --- 0.00 30.069
01/01/2006 11:30 p 31.1 31.1 31.1 31.3 31.0 92 29.1 0.0 0.0 --- 0.00 30.077
01/01/2006 11:40 p 30.8 30.8 30.8 31.0 30.7 93 29.0 0.0 0.0 --- 0.00 30.074
01/01/2006 11:50 p 30.6 30.6 30.6 30.7 30.6 93 28.8 0.0 0.0 --- 0.00 30.076
01/02/2006 12:00 a 30.5 30.5 30.5 30.6 30.4 93 28.7 0.0 0.0 --- 0.00 30.079
01/02/2006 12:10 a 30.3 30.3 30.3 30.4 30.2 93 28.5 0.0 0.0 --- 0.00 30.078
01/02/2006 12:20 a 30.1 30.1 30.1 30.2 30.0 93 28.3 0.0 0.0 --- 0.00 30.076
01/02/2006 12:30 a 29.9 29.9 29.9 30.0 29.9 93 28.1 0.0 0.0 --- 0.00 30.079
01/02/2006 12:40 a 29.9 29.9 29.9 29.9 29.9 93 28.1 0.0 0.0 --- 0.00 30.075
01/02/2006 12:50 a 29.8 29.8 29.8 29.9 29.8 93 28.0 0.0 0.0 --- 0.00 30.079
01/02/2006 1:00 a 29.8 29.8 29.8 29.9 29.8 94 28.3 0.0 0.0 --- 0.00 30.075
01/02/2006 1:10 a 29.8 29.8 29.8 29.8 29.7 93 28.0 0.0 0.0 --- 0.00 30.078
01/02/2006 1:20 a 29.8 29.8 29.8 29.8 29.7 94 28.3 0.0 0.0 --- 0.00 30.076
01/02/2006 1:30 a 29.9 29.9 29.9 30.0 29.8 94 28.4 0.0 0.0 --- 0.00 30.084
01/02/2006 1:40 a 30.0 30.0 30.0 30.0 29.9 94 28.5 0.0 0.0 --- 0.00 30.088
01/02/2006 1:50 a 29.9 29.9 29.9 29.9 29.8 94 28.4 0.0 0.0 --- 0.00 30.092
01/02/2006 2:00 a 29.7 29.7 29.7 29.8 29.6 94 28.2 0.0 0.0 --- 0.00 30.097
01/02/2006 2:10 a 29.6 29.6 29.6 29.6 29.5 94 28.1 0.0 0.0 --- 0.00 30.097
01/02/2006 2:20 a 29.4 29.4 29.4 29.5 29.4 94 27.9 0.0 0.0 --- 0.00 30.098
01/02/2006 2:30 a 29.4 29.4 29.4 29.5 29.3 94 27.9 0.0 0.0 --- 0.00 30.096
01/02/2006 2:40 a 29.6 29.6 29.6 29.8 29.4 94 28.1 0.0 0.0 --- 0.00 30.091
01/02/2006 2:50 a 29.9 29.9 29.9 30.0 29.7 94 28.4 0.0 0.0 --- 0.00 30.094
01/02/2006 3:00 a 30.2 30.2 30.2 30.4 30.0 95 28.9 0.0 0.0 --- 0.00 30.101
01/02/2006 3:10 a 30.7 30.7 30.7 30.8 30.4 95 29.4 0.0 0.0 --- 0.00 30.105
01/02/2006 3:20 a 31.0 31.0 31.0 31.0 30.8 95 29.7 0.0 0.0 --- 0.00 30.103
01/02/2006 3:30 a 31.0 31.0 31.0 31.1 31.0 95 29.7 0.0 0.0 --- 0.00 30.103
01/02/2006 3:40 a 31.1 31.1 31.1 31.1 31.0 95 29.8 0.0 0.0 --- 0.00 30.108
01/02/2006 3:50 a 31.2 31.2 31.2 31.3 31.1 95 29.9 0.0 0.0 --- 0.00 30.104
01/02/2006 4:00 a 31.4 31.4 31.4 31.5 31.3 95 30.1 0.0 0.0 --- 0.00 30.098
01/02/2006 4:10 a 31.5 31.5 31.5 31.5 31.5 95 30.2 0.0 0.0 --- 0.00 30.096
01/02/2006 4:20 a 31.5 31.5 31.5 31.6 31.5 95 30.2 0.0 0.0 --- 0.00 30.089
01/02/2006 4:30 a 31.5 31.5 31.5 31.6 31.5 95 30.2 0.0 0.0 --- 0.00 30.089
01/02/2006 4:40 a 31.7 31.7 31.7 31.7 31.6 95 30.4 0.0 0.0 --- 0.00 30.089
01/02/2006 4:50 a 31.7 31.7 31.7 31.8 31.6 95 30.4 0.0 0.0 --- 0.00 30.086
01/02/2006 5:00 a 31.8 31.8 31.8 31.8 31.7 94 30.3 0.0 0.0 --- 0.00 30.086
01/02/2006 5:10 a 31.8 31.8 31.8 31.8 31.8 94 30.3 0.0 0.0 --- 0.00 30.084
01/02/2006 5:20 a 31.8 31.8 31.8 31.9 31.8 95 30.5 0.0 0.0 --- 0.00 30.086
01/02/2006 5:30 a 32.0 32.0 32.0 32.1 31.9 95 30.7 0.0 0.0 --- 0.00 30.086
01/02/2006 5:40 a 32.1 32.1 32.1 32.1 32.0 95 30.8 0.0 0.0 --- 0.00 30.085
01/02/2006 5:50 a 32.0 32.0 32.0 32.0 31.9 95 30.7 0.0 0.0 --- 0.00 30.087
01/02/2006 6:00 a 31.9 31.9 31.9 32.0 31.9 94 30.4 0.0 0.0 --- 0.00 30.082
01/02/2006 6:10 a 31.9 31.9 31.9 32.0 31.9 94 30.4 0.0 0.0 --- 0.00 30.085
01/02/2006 6:20 a 32.1 32.1 32.1 32.1 32.0 95 30.8 0.0 0.0 --- 0.00 30.087
01/02/2006 6:30 a 32.1 32.1 32.1 32.2 32.1 95 30.8 0.0 0.0 --- 0.00 30.090
01/02/2006 6:40 a 32.3 32.3 32.3 32.3 32.2 95 31.0 0.0 0.0 --- 0.00 30.086
01/02/2006 6:50 a 32.2 32.2 32.2 32.3 32.0 94 30.7 0.0 0.0 --- 0.00 30.078
01/02/2006 7:00 a 31.9 31.9 31.9 32.0 31.7 94 30.4 0.0 0.0 --- 0.00 30.077
01/02/2006 7:10 a 31.7 31.7 31.7 31.8 31.7 94 30.2 0.0 0.0 --- 0.00 30.075
01/02/2006 7:20 a 31.6 31.6 31.6 31.7 31.5 94 30.1 0.0 0.0 --- 0.00 30.081
01/02/2006 7:30 a 31.5 31.5 31.5 31.6 31.4 94 30.0 0.0 0.0 --- 0.00 30.082
01/02/2006 7:40 a 31.2 31.2 31.2 31.4 31.0 94 29.7 0.0 0.0 --- 0.00 30.075
01/02/2006 7:50 a 30.9 30.9 30.9 31.1 30.8 94 29.4 0.0 0.0 --- 0.00 30.085
01/02/2006 8:00 a 30.8 30.8 30.8 30.8 30.7 94 29.3 0.0 0.0 --- 0.00 30.090
01/02/2006 8:10 a 30.7 30.7 30.7 30.8 30.7 94 29.2 0.0 0.0 --- 0.00 30.092
01/02/2006 8:20 a 30.6 30.6 30.6 30.7 30.5 94 29.1 0.0 0.0 --- 0.00 30.105
01/02/2006 8:30 a 30.7 30.7 30.7 30.8 30.5 94 29.2 0.0 0.0 --- 0.00 30.107
01/02/2006 8:40 a 30.9 30.9 30.9 31.1 30.8 94 29.4 0.0 0.0 --- 0.00 30.099
01/02/2006 8:50 a 31.3 31.3 31.3 31.6 31.1 95 30.0 0.0 0.0 --- 0.00 30.105
01/02/2006 9:00 a 31.8 31.8 31.8 32.1 31.5 96 30.8 0.0 0.0 --- 0.00 30.108
01/02/2006 9:10 a 32.4 32.4 32.4 32.8 32.1 97 31.6 0.0 0.0 --- 0.00 30.108
01/02/2006 9:20 a 33.2 33.2 33.2 33.4 32.8 96 32.2 0.0 0.0 --- 0.00 30.111
01/02/2006 9:30 a 33.7 33.7 33.7 34.0 33.4 97 32.9 0.0 0.0 --- 0.00 30.113
01/02/2006 9:40 a 34.3 34.3 34.3 34.6 34.0 96 33.3 0.0 0.0 --- 0.00 30.115
01/02/2006 9:50 a 34.9 34.9 34.9 35.3 34.6 95 33.6 0.0 0.0 --- 0.00 30.120
01/02/2006 10:00 a 35.6 35.6 35.6 35.9 35.3 94 34.0 0.0 0.0 --- 0.00 30.127
01/02/2006 10:10 a 36.2 36.2 36.2 36.5 35.9 91 33.8 0.0 0.0 --- 0.00 30.125
01/02/2006 10:20 a 36.8 36.8 36.8 37.1 36.5 89 33.9 0.0 0.0 --- 0.00 30.118
01/02/2006 10:30 a 37.6 37.6 37.6 38.1 37.1 87 34.1 0.0 0.0 --- 0.00 30.114
01/02/2006 10:40 a 38.3 38.3 38.3 38.5 38.1 84 33.9 0.0 0.0 --- 0.00 30.108
01/02/2006 10:50 a 38.8 38.8 38.8 39.0 38.5 82 33.8 0.0 1.0 E 0.00 30.110
01/02/2006 11:00 a 39.4 39.4 39.4 39.8 39.1 80 33.8 0.0 1.0 --- 0.00 30.107
01/02/2006 11:10 a 40.1 40.1 40.1 40.3 39.8 77 33.5 0.0 0.0 --- 0.00 30.102
01/02/2006 11:20 a 40.5 40.5 40.5 40.6 40.3 76 33.5 0.0 2.0 N 0.00 30.097
01/02/2006 11:30 a 40.9 40.9 40.9 41.2 40.6 76 33.9 0.0 1.0 N 0.00 30.094
01/02/2006 11:40 a 41.5 41.5 41.5 41.7 41.2 76 34.5 0.0 2.0 N 0.00 30.084
01/02/2006 11:50 a 41.9 41.9 41.9 42.1 41.7 74 34.2 0.0 1.0 N 0.00 30.074
01/02/2006 12:00 p 42.4 42.4 42.4 42.8 42.1 73 34.4 0.0 3.0 N 0.00 30.077
01/02/2006 12:10 p 43.1 43.1 43.1 43.4 42.8 68 33.3 0.0 3.0 N 0.00 30.068
01/02/2006 12:20 p 43.5 43.5 43.5 43.7 43.4 67 33.3 0.0 4.0 NW 0.00 30.065
01/02/2006 12:30 p 43.8 43.8 43.8 43.9 43.7 64 32.4 1.0 3.0 N 0.00 30.059
01/02/2006 12:40 p 43.9 43.9 43.9 43.9 43.9 64 32.5 0.0 3.0 N 0.00 30.055
01/02/2006 12:50 p 43.9 43.9 43.9 44.0 43.9 64 32.5 0.0 3.0 NNE 0.00 30.053
01/02/2006 1:00 p 44.0 44.0 44.0 44.1 44.0 64 32.6 0.0 1.0 NNW 0.00 30.051
01/02/2006 1:10 p 44.1 44.1 44.1 44.1 44.1 66 33.5 0.0 3.0 NNW 0.00 30.051
01/02/2006 1:20 p 44.2 44.2 44.2 44.3 44.1 64 32.8 0.0 0.0 --- 0.00 30.043
01/02/2006 1:30 p 44.4 44.4 44.4 44.6 44.3 63 32.6 0.0 2.0 NNW 0.00 30.039
01/02/2006 1:40 p 44.6 44.6 44.6 44.7 44.5 64 33.2 0.0 1.0 --- 0.00 30.035
01/02/2006 1:50 p 44.6 44.6 44.6 44.7 44.6 65 33.6 0.0 2.0 NNW 0.00 30.031
01/02/2006 2:00 p 44.5 44.5 44.5 44.6 44.5 64 33.1 0.0 0.0 --- 0.00 30.028
01/02/2006 2:10 p 44.5 44.5 44.5 44.5 44.4 63 32.7 0.0 2.0 NNW 0.00 30.023
01/02/2006 2:20 p 44.5 44.5 44.5 44.6 44.4 63 32.7 0.0 2.0 NNW 0.00 30.020
01/02/2006 2:30 p 44.6 44.6 44.6 44.7 44.6 62 32.4 0.0 2.0 NNW 0.00 30.023
01/02/2006 2:40 p 44.7 44.7 44.7 44.8 44.7 63 32.9 0.0 3.0 N 0.00 30.021
01/02/2006 2:50 p 44.8 44.8 44.8 44.8 44.8 64 33.4 0.0 3.0 N 0.00 30.015
01/02/2006 3:00 p 44.7 44.7 44.7 44.8 44.7 65 33.7 0.0 3.0 N 0.00 30.018
01/02/2006 3:10 p 44.5 44.5 44.5 44.7 44.2 70 35.3 0.0 3.0 N 0.00 30.022
01/02/2006 3:20 p 43.8 43.8 43.8 44.1 43.4 74 36.1 0.0 2.0 N 0.00 30.026
01/02/2006 3:30 p 43.0 43.0 43.0 43.4 42.7 78 36.6 0.0 2.0 N 0.00 30.022
01/02/2006 3:40 p 42.5 42.5 42.5 42.7 42.3 81 37.1 0.0 0.0 --- 0.00 30.015
01/02/2006 3:50 p 42.1 42.1 42.1 42.3 41.9 84 37.6 0.0 0.0 --- 0.02 30.008
01/02/2006 4:00 p 41.6 41.6 41.6 41.9 41.4 86 37.7 0.0 1.0 N 0.00 30.008
01/02/2006 4:10 p 41.2 41.2 41.2 41.4 41.1 87 37.6 0.0 0.0 --- 0.02 30.016
01/02/2006 4:20 p 41.0 41.0 41.0 41.1 40.9 88 37.7 0.0 0.0 --- 0.00 30.015
01/02/2006 4:30 p 40.8 40.8 40.8 40.9 40.6 88 37.5 0.0 3.0 N 0.01 30.012
01/02/2006 4:40 p 40.5 40.5 40.5 40.6 40.2 88 37.2 0.0 2.0 N 0.01 30.018
01/02/2006 4:50 p 40.0 40.0 40.0 40.2 39.8 88 36.7 0.0 2.0 N 0.00 30.020
01/02/2006 5:00 p 39.7 39.7 39.7 39.8 39.6 88 36.4 0.0 0.0 --- 0.01 30.029
01/02/2006 5:10 p 39.6 39.6 39.6 39.7 39.6 90 36.9 0.0 0.0 --- 0.01 30.026
01/02/2006 5:20 p 39.6 39.6 39.6 39.6 39.5 91 37.2 0.0 1.0 N 0.01 30.020
01/02/2006 5:30 p 39.6 39.6 39.6 39.6 39.5 92 37.5 0.0 1.0 N 0.01 30.016
01/02/2006 5:40 p 39.5 39.5 39.5 39.6 39.5 92 37.4 0.0 0.0 --- 0.01 30.018
01/02/2006 5:50 p 39.5 39.5 39.5 39.6 39.5 92 37.4 0.0 0.0 --- 0.01 30.016
01/02/2006 6:00 p 39.5 39.5 39.5 39.6 39.4 93 37.6 0.0 2.0 N 0.02 30.006
01/02/2006 6:10 p 39.4 39.4 39.4 39.5 39.3 92 37.3 1.0 4.0 N 0.02 29.999
01/02/2006 6:20 p 39.3 39.3 39.3 39.4 39.3 92 37.2 0.0 3.0 N 0.01 29.994
01/02/2006 6:30 p 39.3 39.3 39.3 39.3 39.3 93 37.4 1.0 2.0 N 0.01 29.987
01/02/2006 6:40 p 39.2 39.2 39.2 39.3 39.2 93 37.4 0.0 3.0 N 0.01 29.984
01/02/2006 6:50 p 39.1 39.1 39.1 39.2 39.1 92 37.0 1.0 4.0 N 0.01 29.984
01/02/2006 7:00 p 39.0 39.0 39.0 39.1 39.0 92 36.9 0.0 3.0 N 0.01 29.981
01/02/2006 7:10 p 39.0 39.0 39.0 39.0 38.9 93 37.2 0.0 2.0 W 0.01 29.971
01/02/2006 7:20 p 38.9 38.9 38.9 38.9 38.9 94 37.3 0.0 2.0 W 0.00 29.958
01/02/2006 7:30 p 39.0 39.0 39.0 39.0 38.9 94 37.4 1.0 3.0 W 0.00 29.953
01/02/2006 7:40 p 39.0 39.0 39.0 39.1 39.0 94 37.4 1.0 2.0 W 0.01 29.948
01/02/2006 7:50 p 39.1 39.1 39.1 39.1 39.0 94 37.5 1.0 3.0 NW 0.01 29.943
01/02/2006 8:00 p 39.1 39.1 39.1 39.1 39.0 94 37.5 1.0 3.0 NW 0.00 29.941
01/02/2006 8:10 p 39.0 39.0 39.0 39.1 39.0 94 37.4 1.0 4.0 WNW 0.00 29.931
01/02/2006 8:20 p 39.0 39.0 39.0 39.0 39.0 94 37.4 1.0 3.0 WNW 0.02 29.929
01/02/2006 8:30 p 39.0 39.0 39.0 39.1 39.0 94 37.4 1.0 4.0 W 0.00 29.924
01/02/2006 8:40 p 39.1 39.1 39.1 39.1 39.0 94 37.5 1.0 3.0 WNW 0.00 29.917
01/02/2006 8:50 p 39.2 39.2 39.2 39.3 39.1 94 37.6 1.0 3.0 WNW 0.00 29.916
01/02/2006 9:00 p 39.3 39.3 39.3 39.4 39.2 95 38.0 1.0 4.0 W 0.01 29.912
01/02/2006 9:10 p 39.4 39.4 39.4 39.5 39.3 95 38.1 0.0 2.0 NNW 0.01 29.902
01/02/2006 9:20 p 39.5 39.5 39.5 39.5 39.4 95 38.2 1.0 3.0 NW 0.00 29.893
01/02/2006 9:30 p 39.5 39.5 39.5 39.6 39.5 95 38.2 1.0 3.0 NW 0.01 29.884
01/02/2006 9:40 p 39.6 39.6 39.6 39.6 39.5 95 38.3 1.0 4.0 W 0.01 29.878
01/02/2006 9:50 p 39.6 39.6 39.6 39.7 39.6 95 38.3 1.0 3.0 W 0.00 29.870
01/02/2006 10:00 p 39.7 39.7 39.7 39.8 39.7 95 38.4 1.0 4.0 WNW 0.01 29.862
01/02/2006 10:10 p 39.8 39.8 39.8 39.9 39.8 95 38.5 1.0 4.0 WNW 0.01 29.852
01/02/2006 10:20 p 39.9 39.9 39.9 40.0 39.8 95 38.6 2.0 4.0 NW 0.01 29.844
01/02/2006 10:30 p 40.0 40.0 40.0 40.1 40.0 95 38.7 1.0 3.0 WNW 0.01 29.843
01/02/2006 10:40 p 40.1 40.1 40.1 40.3 40.1 95 38.8 1.0 5.0 NW 0.00 29.840
01/02/2006 10:50 p 40.2 40.2 40.2 40.3 40.2 95 38.9 1.0 4.0 WNW 0.01 29.832
01/02/2006 11:00 p 40.3 40.3 40.3 40.4 40.2 95 39.0 1.0 4.0 NW 0.01 29.825
01/02/2006 11:10 p 40.4 40.4 40.4 40.4 40.3 95 39.1 2.0 6.0 WNW 0.00 29.816
01/02/2006 11:20 p 40.4 40.4 40.4 40.5 40.4 95 39.1 2.0 3.0 WNW 0.01 29.816
01/02/2006 11:30 p 40.5 40.5 40.5 40.6 40.4 95 39.2 2.0 4.0 WNW 0.01 29.809
01/02/2006 11:40 p 40.6 40.6 40.6 40.7 40.5 95 39.3 2.0 4.0 NW 0.01 29.799
01/02/2006 11:50 p 40.7 40.7 40.7 40.7 40.6 95 39.4 1.0 5.0 NW 0.01 29.792
01/03/2006 12:00 a 40.7 40.7 40.7 40.7 40.7 95 39.4 1.0 4.0 WNW 0.01 29.781
01/03/2006 12:10 a 40.7 40.7 40.7 40.8 40.7 95 39.4 2.0 4.0 NW 0.01 29.773
01/03/2006 12:20 a 40.7 40.7 40.7 40.8 40.7 95 39.4 1.0 4.0 W 0.01 29.766
01/03/2006 12:30 a 40.7 40.7 40.7 40.7 40.6 95 39.4 1.0 5.0 WNW 0.01 29.758
01/03/2006 12:40 a 40.6 40.6 40.6 40.7 40.5 95 39.3 1.0 3.0 WNW 0.02 29.752
01/03/2006 12:50 a 40.5 40.5 40.5 40.6 40.4 95 39.2 1.0 3.0 W 0.00 29.745
01/03/2006 1:00 a 40.4 40.4 40.4 40.5 40.4 95 39.1 2.0 5.0 WNW 0.01 29.732
01/03/2006 1:10 a 40.4 40.4 40.4 40.4 40.3 95 39.1 2.0 5.0 WNW 0.01 29.720
01/03/2006 1:20 a 40.4 40.4 40.4 40.4 40.3 95 39.1 2.0 5.0 W 0.00 29.719
01/03/2006 1:30 a 40.4 40.4 40.4 40.4 40.4 95 39.1 2.0 7.0 W 0.02 29.711
01/03/2006 1:40 a 40.4 40.4 40.4 40.4 40.3 95 39.1 2.0 5.0 WNW 0.01 29.710
01/03/2006 1:50 a 40.3 40.3 40.3 40.3 40.2 95 39.0 1.0 4.0 WNW 0.01 29.713
01/03/2006 2:00 a 40.2 40.2 40.2 40.3 40.2 95 38.9 2.0 4.0 WNW 0.02 29.707
01/03/2006 2:10 a 40.2 40.2 40.2 40.2 40.1 95 38.9 1.0 5.0 W 0.02 29.712
01/03/2006 2:20 a 40.2 40.2 40.2 40.2 40.1 95 38.9 1.0 4.0 W 0.02 29.716
01/03/2006 2:30 a 40.2 40.2 40.2 40.2 40.2 95 38.9 1.0 4.0 WNW 0.01 29.719
01/03/2006 2:40 a 40.2 40.2 40.2 40.3 40.2 95 38.9 1.0 5.0 WNW 0.01 29.714
01/03/2006 2:50 a 40.2 40.2 40.2 40.3 40.2 95 38.9 1.0 4.0 WNW 0.02 29.712
01/03/2006 3:00 a 40.2 40.2 40.2 40.2 40.1 95 38.9 2.0 5.0 W 0.02 29.712
01/03/2006 3:10 a 40.1 40.1 40.1 40.2 40.0 95 38.8 2.0 5.0 WNW 0.00 29.707
01/03/2006 3:20 a 40.0 40.0 40.0 40.1 40.0 95 38.7 2.0 5.0 WNW 0.02 29.707
01/03/2006 3:30 a 40.0 40.0 40.0 40.0 40.0 95 38.7 1.0 4.0 WNW 0.00 29.712
01/03/2006 3:40 a 40.0 40.0 40.0 40.0 39.9 94 38.4 2.0 6.0 W 0.02 29.707
01/03/2006 3:50 a 39.9 39.9 39.9 39.9 39.7 94 38.3 2.0 5.0 WNW 0.01 29.706
01/03/2006 4:00 a 39.6 39.6 39.6 39.7 39.4 94 38.0 2.0 5.0 W 0.01 29.701
01/03/2006 4:10 a 39.3 39.3 39.3 39.5 39.2 94 37.7 2.0 7.0 W 0.01 29.700
01/03/2006 4:20 a 39.1 39.1 39.1 39.2 39.1 93 37.3 2.0 7.0 W 0.01 29.705
01/03/2006 4:30 a 39.0 39.0 39.0 39.1 38.8 93 37.2 2.0 6.0 W 0.00 29.698
01/03/2006 4:40 a 38.5 38.5 38.5 38.8 38.3 92 36.4 2.0 5.0 WNW 0.00 29.699
01/03/2006 4:50 a 38.0 38.0 38.0 38.3 37.8 93 36.2 2.0 5.0 WNW 0.01 29.703
01/03/2006 5:00 a 37.7 37.7 37.7 37.8 37.5 92 35.6 2.0 7.0 WNW 0.01 29.704
01/03/2006 5:10 a 37.4 37.4 37.4 37.5 37.3 93 35.6 2.0 6.0 W 0.00 29.708
01/03/2006 5:20 a 37.3 37.3 37.3 37.4 37.3 93 35.5 2.0 5.0 WNW 0.00 29.709
01/03/2006 5:30 a 37.3 37.3 37.3 37.3 37.3 93 35.5 2.0 7.0 WNW 0.01 29.703
01/03/2006 5:40 a 37.3 37.3 37.3 37.3 37.3 93 35.5 2.0 7.0 WNW 0.01 29.698
01/03/2006 5:50 a 37.3 37.3 37.3 37.3 37.3 93 35.5 2.0 6.0 W 0.00 29.698
01/03/2006 6:00 a 37.3 37.3 37.3 37.3 37.3 93 35.5 2.0 7.0 W 0.00 29.693
01/03/2006 6:10 a 37.3 37.3 37.3 37.3 37.2 93 35.5 2.0 5.0 WNW 0.00 29.688
01/03/2006 6:20 a 37.2 37.2 37.2 37.3 37.2 93 35.4 3.0 8.0 WNW 0.01 29.686
01/03/2006 6:30 a 37.1 37.1 37.1 37.2 37.1 93 35.3 2.0 6.0 WNW 0.00 29.681
01/03/2006 6:40 a 37.1 37.1 37.1 37.1 37.0 93 35.3 2.0 6.0 W 0.01 29.685
01/03/2006 6:50 a 37.0 37.0 37.0 37.0 36.9 93 35.2 2.0 4.0 WSW 0.00 29.681
01/03/2006 7:00 a 36.9 36.9 36.9 36.9 36.8 93 35.1 2.0 8.0 W 0.00 29.679
01/03/2006 7:10 a 36.8 36.8 36.8 36.9 36.7 93 35.0 2.0 7.0 WNW 0.00 29.681
01/03/2006 7:20 a 36.8 36.8 36.8 36.8 36.7 93 35.0 2.0 7.0 SSW 0.00 29.689
01/03/2006 7:30 a 36.6 36.6 36.6 36.8 36.5 93 34.8 2.0 5.0 W 0.00 29.690
01/03/2006 7:40 a 36.4 36.4 36.4 36.5 36.3 93 34.6 2.0 6.0 WSW 0.01 29.693
01/03/2006 7:50 a 36.3 36.3 36.3 36.3 36.2 93 34.5 2.0 4.0 WNW 0.00 29.704
01/03/2006 8:00 a 36.2 36.2 36.2 36.2 36.2 94 34.6 2.0 8.0 W 0.01 29.710
01/03/2006 8:10 a 36.2 36.2 36.2 36.2 36.1 93 34.4 2.0 4.0 WNW 0.00 29.708
01/03/2006 8:20 a 36.1 36.1 36.1 36.2 36.0 94 34.5 1.0 4.0 NW 0.01 29.711
01/03/2006 8:30 a 36.0 36.0 36.0 36.1 36.0 93 34.2 2.0 5.0 WSW 0.01 29.709
01/03/2006 8:40 a 35.8 35.8 35.8 36.0 35.6 93 34.0 2.0 5.0 W 0.00 29.712
01/03/2006 8:50 a 35.4 35.4 35.4 35.6 35.3 93 33.6 2.0 5.0 WSW 0.00 29.718
01/03/2006 9:00 a 35.2 35.2 35.2 35.3 35.1 93 33.4 2.0 4.0 W 0.00 29.726
01/03/2006 9:10 a 35.0 35.0 35.0 35.1 34.9 93 33.2 2.0 5.0 SSW 0.01 29.729
01/03/2006 9:20 a 34.9 34.9 34.9 35.0 34.8 93 33.1 1.0 4.0 WSW 0.00 29.739
01/03/2006 9:30 a 34.6 34.6 34.6 34.8 34.4 93 32.8 1.0 4.0 W 0.01 29.740
01/03/2006 9:40 a 34.3 34.3 34.3 34.4 34.2 94 32.8 1.0 4.0 W 0.00 29.740
01/03/2006 9:50 a 34.2 34.2 34.2 34.2 34.1 94 32.7 1.0 4.0 SW 0.01 29.741
01/03/2006 10:00 a 34.2 34.2 34.2 34.3 34.2 94 32.7 2.0 5.0 WNW 0.01 29.742
01/03/2006 10:10 a 34.4 34.4 34.4 34.5 34.3 94 32.9 2.0 5.0 WSW 0.00 29.746
01/03/2006 10:20 a 34.5 34.5 34.5 34.6 34.5 94 33.0 2.0 5.0 SW 0.01 29.746
01/03/2006 10:30 a 34.7 34.7 34.7 34.8 34.6 94 33.2 2.0 6.0 SW 0.01 29.752
01/03/2006 10:40 a 35.0 35.0 35.0 35.2 34.8 94 33.5 2.0 8.0 SW 0.00 29.749
01/03/2006 10:50 a 35.4 35.4 35.4 35.6 35.2 94 33.8 2.0 4.0 WSW 0.00 29.751
01/03/2006 11:00 a 35.7 35.7 35.7 35.9 35.6 94 34.1 2.0 6.0 SW 0.01 29.750
01/03/2006 11:10 a 35.9 35.9 35.9 36.0 35.8 94 34.3 2.0 5.0 WSW 0.01 29.746
01/03/2006 11:20 a 36.0 36.0 36.0 36.1 35.9 94 34.4 2.0 6.0 WSW 0.00 29.747
01/03/2006 11:30 a 36.1 36.1 36.1 36.1 36.0 94 34.5 2.0 5.0 WSW 0.00 29.749
01/03/2006 11:40 a 36.1 36.1 36.1 36.2 36.1 93 34.3 2.0 7.0 W 0.00 29.746
01/03/2006 11:50 a 36.2 36.2 36.2 36.2 36.1 94 34.6 2.0 6.0 WSW 0.00 29.740
01/03/2006 12:00 p 36.2 36.2 36.2 36.3 36.2 94 34.6 2.0 5.0 SW 0.01 29.739
01/03/2006 12:10 p 36.3 36.3 36.3 36.4 36.2 94 34.7 2.0 5.0 SW 0.00 29.737
01/03/2006 12:20 p 36.5 36.5 36.5 36.6 36.4 94 34.9 2.0 5.0 WSW 0.01 29.735
01/03/2006 12:30 p 36.6 36.6 36.6 36.6 36.5 93 34.8 2.0 6.0 SW 0.00 29.731
01/03/2006 12:40 p 36.5 36.5 36.5 36.5 36.4 93 34.7 2.0 4.0 WSW 0.00 29.726
01/03/2006 12:50 p 36.4 36.4 36.4 36.4 36.4 93 34.6 2.0 7.0 SSW 0.00 29.724
01/03/2006 1:00 p 36.4 36.4 36.4 36.5 36.4 93 34.6 2.0 4.0 WSW 0.00 29.718
01/03/2006 1:10 p 36.5 36.5 36.5 36.5 36.4 93 34.7 1.0 5.0 SW 0.01 29.720
01/03/2006 1:20 p 36.6 36.6 36.6 36.6 36.5 93 34.8 1.0 7.0 SW 0.00 29.717
01/03/2006 1:30 p 36.6 36.6 36.6 36.7 36.6 93 34.8 2.0 6.0 WSW 0.01 29.717
01/03/2006 1:40 p 36.8 36.8 36.8 36.9 36.7 93 35.0 2.0 5.0 W 0.00 29.716
01/03/2006 1:50 p 36.9 36.9 36.9 37.0 36.9 92 34.8 2.0 5.0 SW 0.00 29.717
01/03/2006 2:00 p 37.0 37.0 37.0 37.0 36.9 92 34.9 2.0 5.0 SW 0.00 29.719
01/03/2006 2:10 p 37.0 37.0 37.0 37.0 37.0 92 34.9 2.0 5.0 W 0.00 29.722
01/03/2006 2:20 p 37.0 37.0 37.0 37.1 37.0 92 34.9 2.0 6.0 W 0.00 29.725
01/03/2006 2:30 p 37.0 37.0 37.0 37.1 37.0 91 34.6 2.0 6.0 W 0.00 29.730
01/03/2006 2:40 p 37.0 37.0 37.0 37.0 37.0 91 34.6 2.0 5.0 SW 0.00 29.735
01/03/2006 2:50 p 36.9 36.9 36.9 37.0 36.9 91 34.5 2.0 8.0 W 0.00 29.736
01/03/2006 3:00 p 37.0 37.0 37.0 37.0 36.9 90 34.3 3.0 9.0 SW 0.00 29.745
01/03/2006 3:10 p 37.1 37.1 37.1 37.1 37.0 90 34.4 2.0 7.0 SW 0.00 29.746
01/03/2006 3:20 p 37.1 37.1 37.1 37.1 37.0 90 34.4 2.0 6.0 WSW 0.00 29.747
01/03/2006 3:30 p 37.0 37.0 37.0 37.1 36.9 90 34.3 2.0 7.0 SW 0.00 29.752
01/03/2006 3:40 p 36.9 36.9 36.9 37.0 36.9 90 34.2 2.0 6.0 SSW 0.01 29.759
01/03/2006 3:50 p 36.9 36.9 36.9 37.0 36.9 90 34.2 2.0 7.0 SW 0.00 29.760
01/03/2006 4:00 p 36.9 36.9 36.9 37.0 36.9 89 34.0 2.0 7.0 WSW 0.00 29.765
01/03/2006 4:10 p 36.9 36.9 36.9 37.0 36.8 89 34.0 3.0 7.0 SW 0.00 29.771
01/03/2006 4:20 p 36.8 36.8 36.8 36.9 36.7 89 33.9 2.0 7.0 SW 0.00 29.779
01/03/2006 4:30 p 36.7 36.7 36.7 36.8 36.7 89 33.8 2.0 7.0 SW 0.00 29.787
01/03/2006 4:40 p 36.6 36.6 36.6 36.7 36.5 90 34.0 1.0 4.0 WSW 0.00 29.792
01/03/2006 4:50 p 36.5 36.5 36.5 36.6 36.5 90 33.9 2.0 7.0 WSW 0.00 29.797
01/03/2006 5:00 p 36.5 36.5 36.5 36.5 36.4 90 33.9 2.0 8.0 S 0.00 29.800
01/03/2006 5:10 p 36.4 36.4 36.4 36.5 36.4 90 33.8 2.0 4.0 SW 0.00 29.805
01/03/2006 5:20 p 36.4 36.4 36.4 36.5 36.4 90 33.8 2.0 4.0 SW 0.00 29.815
01/03/2006 5:30 p 36.5 36.5 36.5 36.5 36.4 90 33.9 1.0 5.0 SW 0.00 29.816
01/03/2006 5:40 p 36.5 36.5 36.5 36.5 36.4 89 33.6 2.0 7.0 SW 0.00 29.823
01/03/2006 5:50 p 36.5 36.5 36.5 36.6 36.5 89 33.6 2.0 5.0 SSW 0.00 29.832
01/03/2006 6:00 p 36.5 36.5 36.5 36.6 36.5 88 33.3 2.0 7.0 SW 0.00 29.837
01/03/2006 6:10 p 36.4 36.4 36.4 36.5 36.3 88 33.2 2.0 5.0 SW 0.00 29.840
01/03/2006 6:20 p 36.2 36.2 36.2 36.3 36.0 89 33.3 1.0 6.0 WNW 0.01 29.840
01/03/2006 6:30 p 36.0 36.0 36.0 36.0 35.9 89 33.1 2.0 5.0 WNW 0.00 29.844
01/03/2006 6:40 p 35.9 35.9 35.9 36.0 35.9 90 33.3 1.0 4.0 WSW 0.00 29.849
01/03/2006 6:50 p 35.9 35.9 35.9 35.9 35.9 89 33.0 1.0 5.0 SW 0.00 29.853
01/03/2006 7:00 p 35.9 35.9 35.9 36.0 35.9 88 32.7 1.0 4.0 SW 0.00 29.860
01/03/2006 7:10 p 36.0 36.0 36.0 36.1 36.0 87 32.5 1.0 4.0 SW 0.00 29.868
01/03/2006 7:20 p 36.1 36.1 36.1 36.1 36.0 87 32.6 1.0 5.0 SW 0.00 29.871
01/03/2006 7:30 p 36.1 36.1 36.1 36.1 36.1 87 32.6 1.0 5.0 SSW 0.00 29.875
01/03/2006 7:40 p 36.1 36.1 36.1 36.1 36.1 86 32.3 2.0 6.0 SSW 0.00 29.878
01/03/2006 7:50 p 36.0 36.0 36.0 36.1 35.9 87 32.5 1.0 5.0 S 0.00 29.883
01/03/2006 8:00 p 35.9 35.9 35.9 36.0 35.8 88 32.7 1.0 5.0 SSW 0.00 29.891
01/03/2006 8:10 p 35.8 35.8 35.8 35.8 35.7 88 32.6 1.0 3.0 SW 0.00 29.894
01/03/2006 8:20 p 35.6 35.6 35.6 35.7 35.6 88 32.4 1.0 3.0 WNW 0.00 29.892
01/03/2006 8:30 p 35.5 35.5 35.5 35.6 35.4 88 32.3 1.0 4.0 SW 0.00 29.900
01/03/2006 8:40 p 35.4 35.4 35.4 35.5 35.4 89 32.5 0.0 4.0 WSW 0.00 29.903
01/03/2006 8:50 p 35.4 35.4 35.4 35.4 35.3 88 32.2 0.0 3.0 WNW 0.00 29.902
01/03/2006 9:00 p 35.4 35.4 35.4 35.4 35.3 88 32.2 0.0 2.0 SSW 0.00 29.905
01/03/2006 9:10 p 35.4 35.4 35.4 35.5 35.4 88 32.2 0.0 2.0 SSW 0.00 29.903
01/03/2006 9:20 p 35.5 35.5 35.5 35.5 35.4 88 32.3 0.0 3.0 SSW 0.00 29.902
01/03/2006 9:30 p 35.5 35.5 35.5 35.5 35.4 87 32.0 1.0 5.0 SSW 0.00 29.905
01/03/2006 9:40 p 35.5 35.5 35.5 35.5 35.4 87 32.0 0.0 2.0 S 0.00 29.908
01/03/2006 9:50 p 35.5 35.5 35.5 35.5 35.4 86 31.7 0.0 2.0 S 0.00 29.913
01/03/2006 10:00 p 35.5 35.5 35.5 35.6 35.5 86 31.7 0.0 3.0 S 0.00 29.911
01/03/2006 10:10 p 35.6 35.6 35.6 35.7 35.5 85 31.5 1.0 4.0 WNW 0.00 29.908
01/03/2006 10:20 p 35.7 35.7 35.7 35.7 35.6 85 31.6 0.0 1.0 WNW 0.00 29.907
01/03/2006 10:30 p 35.7 35.7 35.7 35.7 35.6 86 31.9 0.0 1.0 WNW 0.00 29.905
01/03/2006 10:40 p 35.6 35.6 35.6 35.7 35.6 86 31.8 0.0 1.0 WNW 0.00 29.905
01/03/2006 10:50 p 35.6 35.6 35.6 35.6 35.6 87 32.1 0.0 3.0 SSW 0.00 29.907
01/03/2006 11:00 p 35.5 35.5 35.5 35.6 35.5 87 32.0 0.0 0.0 --- 0.00 29.905
01/03/2006 11:10 p 35.5 35.5 35.5 35.5 35.5 88 32.3 0.0 3.0 SE 0.00 29.908
01/03/2006 11:20 p 35.5 35.5 35.5 35.5 35.5 88 32.3 0.0 2.0 SE 0.00 29.911
01/03/2006 11:30 p 35.5 35.5 35.5 35.5 35.4 88 32.3 0.0 3.0 S 0.00 29.912
01/03/2006 11:40 p 35.5 35.5 35.5 35.5 35.4 88 32.3 0.0 1.0 S 0.00 29.906
01/03/2006 11:50 p 35.5 35.5 35.5 35.5 35.4 87 32.0 1.0 6.0 SW 0.00 29.898
01/04/2006 12:00 a 35.5 35.5 35.5 35.5 35.4 84 31.2 1.0 2.0 S 0.00 29.899
01/04/2006 12:10 a 35.5 35.5 35.5 35.5 35.5 83 30.9 0.0 3.0 S 0.00 29.896
01/04/2006 12:20 a 35.5 35.5 35.5 35.5 35.5 83 30.9 0.0 4.0 WSW 0.00 29.895
01/04/2006 12:30 a 35.5 35.5 35.5 35.5 35.4 83 30.9 0.0 3.0 SW 0.00 29.892
01/04/2006 12:40 a 35.4 35.4 35.4 35.4 35.3 82 30.5 0.0 2.0 SW 0.00 29.899
01/04/2006 12:50 a 35.3 35.3 35.3 35.3 35.2 83 30.7 0.0 2.0 SW 0.00 29.897
01/04/2006 1:00 a 35.1 35.1 35.1 35.2 35.0 84 30.8 0.0 1.0 SW 0.00 29.896
01/04/2006 1:10 a 34.8 34.8 34.8 35.0 34.7 83 30.2 0.0 3.0 SW 0.00 29.900
01/04/2006 1:20 a 34.5 34.5 34.5 34.7 34.4 82 29.6 1.0 4.0 SSW 0.00 29.896
01/04/2006 1:30 a 34.3 34.3 34.3 34.4 34.1 81 29.1 1.0 3.0 SSW 0.00 29.898
01/04/2006 1:40 a 34.0 34.0 34.0 34.1 33.8 80 28.5 1.0 3.0 SSW 0.00 29.896
01/04/2006 1:50 a 33.6 33.6 33.6 33.8 33.5 79 27.8 1.0 4.0 SSW 0.00 29.898
01/04/2006 2:00 a 33.4 33.4 33.4 33.5 33.3 80 27.9 0.0 2.0 SSE 0.00 29.902
01/04/2006 2:10 a 33.2 33.2 33.2 33.3 33.0 80 27.7 0.0 1.0 S 0.00 29.902
01/04/2006 2:20 a 32.9 32.9 32.9 33.0 32.7 80 27.4 0.0 1.0 S 0.00 29.905
01/04/2006 2:30 a 32.6 32.6 32.6 32.7 32.5 81 27.4 0.0 1.0 S 0.00 29.914
01/04/2006 2:40 a 32.5 32.5 32.5 32.6 32.4 81 27.3 0.0 1.0 --- 0.00 29.923
01/04/2006 2:50 a 32.3 32.3 32.3 32.4 32.2 81 27.1 0.0 1.0 S 0.00 29.923
01/04/2006 3:00 a 32.2 32.2 32.2 32.2 32.1 80 26.7 0.0 2.0 S 0.00 29.928
01/04/2006 3:10 a 32.1 32.1 32.1 32.1 32.0 80 26.6 0.0 2.0 S 0.00 29.925
01/04/2006 3:20 a 32.0 32.0 32.0 32.1 31.9 81 26.8 0.0 0.0 --- 0.00 29.929
01/04/2006 3:30 a 31.9 31.9 31.9 31.9 31.8 80 26.4 0.0 0.0 --- 0.00 29.925
01/04/2006 3:40 a 31.7 31.7 31.7 31.8 31.6 81 26.5 0.0 1.0 --- 0.00 29.923
01/04/2006 3:50 a 31.5 31.5 31.5 31.6 31.4 80 26.1 0.0 1.0 S 0.00 29.926
01/04/2006 4:00 a 31.4 31.4 31.4 31.5 31.3 80 26.0 0.0 2.0 S 0.00 29.921
01/04/2006 4:10 a 31.4 31.4 31.4 31.4 31.3 81 26.3 0.0 2.0 S 0.00 29.920
01/04/2006 4:20 a 31.2 31.2 31.2 31.3 31.1 80 25.8 0.0 1.0 --- 0.00 29.918
01/04/2006 4:30 a 31.0 31.0 31.0 31.1 31.0 79 25.3 0.0 0.0 --- 0.00 29.921
01/04/2006 4:40 a 30.9 30.9 30.9 31.0 30.9 81 25.8 0.0 0.0 --- 0.00 29.932
01/04/2006 4:50 a 30.8 30.8 30.8 30.9 30.8 80 25.4 0.0 0.0 --- 0.00 29.929
01/04/2006 5:00 a 30.8 30.8 30.8 30.9 30.8 82 26.0 0.0 0.0 --- 0.00 29.931
01/04/2006 5:10 a 31.1 31.1 31.1 31.2 30.9 81 26.0 0.0 2.0 S 0.00 29.934
01/04/2006 5:20 a 31.3 31.3 31.3 31.4 31.2 81 26.2 0.0 0.0 --- 0.00 29.933
01/04/2006 5:30 a 31.4 31.4 31.4 31.5 31.3 79 25.7 0.0 3.0 ESE 0.00 29.936
01/04/2006 5:40 a 31.4 31.4 31.4 31.5 31.3 79 25.7 0.0 3.0 SSW 0.00 29.938
01/04/2006 5:50 a 31.2 31.2 31.2 31.4 31.1 79 25.5 0.0 2.0 SSW 0.00 29.938
01/04/2006 6:00 a 31.0 31.0 31.0 31.2 30.9 78 25.0 0.0 2.0 SSW 0.00 29.949
01/04/2006 6:10 a 30.8 30.8 30.8 30.9 30.7 78 24.8 0.0 3.0 SSW 0.00 29.948
01/04/2006 6:20 a 30.7 30.7 30.7 30.7 30.6 79 25.0 0.0 2.0 SSW 0.00 29.950
01/04/2006 6:30 a 30.6 30.6 30.6 30.6 30.5 78 24.6 0.0 1.0 SSW 0.00 29.950
01/04/2006 6:40 a 30.3 30.3 30.3 30.5 30.2 78 24.3 0.0 2.0 SSW 0.00 29.947
01/04/2006 6:50 a 30.1 30.1 30.1 30.3 30.1 78 24.1 0.0 2.0 SSW 0.00 29.948
01/04/2006 7:00 a 30.0 30.0 30.0 30.1 29.9 78 24.0 0.0 1.0 SSW 0.00 29.956
01/04/2006 7:10 a 29.9 29.9 29.9 29.9 29.9 77 23.6 0.0 3.0 SSW 0.00 29.954
01/04/2006 7:20 a 29.8 29.8 29.8 29.9 29.8 78 23.8 0.0 2.0 SSW 0.00 29.951
01/04/2006 7:30 a 29.7 29.7 29.7 29.8 29.6 77 23.4 0.0 2.0 SSW 0.00 29.949
01/04/2006 7:40 a 29.6 29.6 29.6 29.6 29.5 77 23.3 0.0 2.0 SSW 0.00 29.954
01/04/2006 7:50 a 29.5 29.5 29.5 29.5 29.4 76 22.9 0.0 2.0 SSW 0.00 29.955
01/04/2006 8:00 a 29.4 29.4 29.4 29.5 29.4 76 22.8 0.0 1.0 SSW 0.00 29.956
01/04/2006 8:10 a 29.4 29.4 29.4 29.4 29.4 76 22.8 0.0 2.0 SSW 0.00 29.956
01/04/2006 8:20 a 29.4 29.4 29.4 29.5 29.4 75 22.5 0.0 2.0 SSW 0.00 29.950
01/04/2006 8:30 a 29.6 29.6 29.6 29.6 29.5 75 22.7 0.0 2.0 SSW 0.00 29.950
01/04/2006 8:40 a 29.6 29.6 29.6 29.7 29.6 75 22.7 0.0 2.0 SSW 0.00 29.959
01/04/2006 8:50 a 29.6 29.6 29.6 29.7 29.6 74 22.3 0.0 2.0 SSW 0.00 29.955
01/04/2006 9:00 a 29.8 29.8 29.8 30.2 29.6 74 22.5 0.0 1.0 SSW 0.00 29.962
01/04/2006 9:10 a 30.6 30.6 30.6 31.1 30.2 72 22.7 0.0 2.0 SSW 0.00 29.961
01/04/2006 9:20 a 31.6 31.6 31.6 32.0 31.1 69 22.6 1.0 4.0 SSW 0.00 29.952
01/04/2006 9:30 a 32.1 32.1 32.1 32.3 32.0 69 23.1 0.0 3.0 WSW 0.00 29.949
01/04/2006 9:40 a 32.3 32.3 32.3 32.4 32.1 67 22.6 1.0 3.0 WNW 0.00 29.949
01/04/2006 9:50 a 31.8 31.8 31.8 32.0 31.7 68 22.5 0.0 3.0 SSW 0.00 29.951
01/04/2006 10:00 a 31.9 31.9 31.9 32.2 31.7 67 22.2 0.0 2.0 SSW 0.00 29.952
01/04/2006 10:10 a 32.1 32.1 32.1 32.2 32.1 67 22.4 0.0 3.0 SSW 0.00 29.961
01/04/2006 10:20 a 32.3 32.3 32.3 32.5 32.2 68 22.9 0.0 2.0 SSW 0.00 29.957
01/04/2006 10:30 a 32.8 32.8 32.8 33.1 32.5 67 23.1 0.0 3.0 SSW 0.00 29.957
01/04/2006 10:40 a 33.1 33.1 33.1 33.1 33.0 67 23.4 0.0 2.0 SSW 0.00 29.947
01/04/2006 10:50 a 33.2 33.2 33.2 33.3 33.1 66 23.1 1.0 3.0 SSW 0.00 29.942
01/04/2006 11:00 a 33.4 33.4 33.4 33.5 33.3 65 22.9 0.0 3.0 WNW 0.00 29.945
01/04/2006 11:10 a 33.7 33.7 33.7 33.8 33.5 64 22.8 1.0 4.0 SSW 0.00 29.942
01/04/2006 11:20 a 34.1 34.1 34.1 34.4 33.8 64 23.2 0.0 2.0 SSW 0.00 29.939
01/04/2006 11:30 a 34.5 34.5 34.5 34.7 34.4 66 24.3 0.0 2.0 NNW 0.00 29.931
01/04/2006 11:40 a 35.1 35.1 35.1 35.6 34.7 65 24.5 0.0 3.0 N 0.00 29.915
01/04/2006 11:50 a 35.9 35.9 35.9 36.1 35.6 64 24.9 1.0 4.0 N 0.00 29.910
01/04/2006 12:00 p 36.1 36.1 36.1 36.1 36.0 63 24.7 0.0 1.0 N 0.00 29.907
01/04/2006 12:10 p 36.1 36.1 36.1 36.2 35.9 63 24.7 0.0 2.0 WNW 0.00 29.894
01/04/2006 12:20 p 35.8 35.8 35.8 35.9 35.7 63 24.5 0.0 2.0 WNW 0.00 29.884
01/04/2006 12:30 p 36.1 36.1 36.1 36.3 35.9 62 24.4 0.0 2.0 WNW 0.00 29.871
01/04/2006 12:40 p 36.5 36.5 36.5 36.8 36.3 64 25.5 1.0 3.0 W 0.00 29.863
01/04/2006 12:50 p 36.9 36.9 36.9 36.9 36.8 63 25.5 1.0 3.0 WNW 0.00 29.850
01/04/2006 1:00 p 37.0 37.0 37.0 37.1 36.9 62 25.2 1.0 3.0 N 0.00 29.845
01/04/2006 1:10 p 37.3 37.3 37.3 37.7 37.1 64 26.3 0.0 2.0 N 0.00 29.839
01/04/2006 1:20 p 37.8 37.8 37.8 37.8 37.7 62 26.0 0.0 3.0 WNW 0.00 29.834
01/04/2006 1:30 p 37.8 37.8 37.8 37.8 37.7 63 26.4 0.0 3.0 WNW 0.00 29.826
01/04/2006 1:40 p 38.0 38.0 38.0 38.1 37.8 62 26.2 0.0 2.0 N 0.00 29.820
01/04/2006 1:50 p 38.2 38.2 38.2 38.3 38.1 61 26.0 0.0 3.0 NNW 0.00 29.823
01/04/2006 2:00 p 38.3 38.3 38.3 38.4 38.3 63 26.8 0.0 2.0 NNW 0.00 29.820
01/04/2006 2:10 p 38.5 38.5 38.5 38.5 38.4 62 26.6 0.0 2.0 NNW 0.00 29.817
01/04/2006 2:20 p 38.6 38.6 38.6 38.7 38.5 60 25.9 1.0 2.0 N 0.00 29.809
01/04/2006 2:30 p 38.6 38.6 38.6 38.7 38.5 61 26.3 0.0 2.0 N 0.00 29.805
01/04/2006 2:40 p 38.5 38.5 38.5 38.6 38.5 61 26.2 0.0 2.0 N 0.00 29.800
01/04/2006 2:50 p 38.7 38.7 38.7 38.8 38.6 61 26.4 0.0 3.0 N 0.00 29.797
01/04/2006 3:00 p 38.8 38.8 38.8 38.9 38.7 60 26.1 0.0 2.0 N 0.00 29.803
01/04/2006 3:10 p 38.8 38.8 38.8 38.8 38.7 61 26.5 0.0 1.0 N 0.00 29.800
01/04/2006 3:20 p 38.7 38.7 38.7 38.8 38.7 62 26.8 0.0 2.0 N 0.00 29.791
01/04/2006 3:30 p 38.7 38.7 38.7 38.8 38.7 64 27.6 0.0 3.0 N 0.00 29.795
01/04/2006 3:40 p 38.7 38.7 38.7 38.8 38.5 64 27.6 1.0 4.0 N 0.00 29.798
01/04/2006 3:50 p 38.3 38.3 38.3 38.6 38.1 67 28.3 1.0 4.0 N 0.00 29.798
01/04/2006 4:00 p 37.8 37.8 37.8 38.1 37.5 67 27.8 1.0 3.0 NNE 0.00 29.791
01/04/2006 4:10 p 37.4 37.4 37.4 37.5 37.2 67 27.5 1.0 3.0 NNE 0.00 29.790
01/04/2006 4:20 p 37.1 37.1 37.1 37.2 36.9 68 27.5 1.0 3.0 NNE 0.00 29.788
01/04/2006 4:30 p 36.8 36.8 36.8 36.9 36.7 69 27.6 1.0 3.0 NNE 0.00 29.785
01/04/2006 4:40 p 36.6 36.6 36.6 36.7 36.5 70 27.8 1.0 3.0 N 0.00 29.759
01/04/2006 4:50 p 36.4 36.4 36.4 36.5 36.4 70 27.6 1.0 4.0 N 0.00 29.781
01/04/2006 5:00 p 36.2 36.2 36.2 36.4 36.1 70 27.4 1.0 5.0 N 0.00 29.776
01/04/2006 5:10 p 35.9 35.9 35.9 36.1 35.7 71 27.4 1.0 3.0 N 0.00 29.782
01/04/2006 5:20 p 35.6 35.6 35.6 35.8 35.5 72 27.5 0.0 0.0 --- 0.00 29.784
01/04/2006 5:30 p 35.3 35.3 35.3 35.5 35.2 73 27.5 0.0 0.0 --- 0.00 29.786
01/04/2006 5:40 p 35.1 35.1 35.1 35.2 35.0 73 27.3 0.0 0.0 --- 0.00 29.782
01/04/2006 5:50 p 35.1 35.1 35.1 35.2 35.0 74 27.7 0.0 2.0 N 0.00 29.791
01/04/2006 6:00 p 35.2 35.2 35.2 35.2 35.1 75 28.1 0.0 0.0 --- 0.00 29.784
01/04/2006 6:10 p 35.0 35.0 35.0 35.1 34.9 76 28.2 0.0 2.0 N 0.00 29.783
01/04/2006 6:20 p 34.9 34.9 34.9 35.0 34.8 76 28.1 0.0 2.0 N 0.00 29.789
01/04/2006 6:30 p 34.6 34.6 34.6 34.8 34.5 77 28.1 0.0 2.0 N 0.00 29.784
01/04/2006 6:40 p 34.4 34.4 34.4 34.5 34.3 78 28.3 0.0 3.0 NNW 0.00 29.778
01/04/2006 6:50 p 34.2 34.2 34.2 34.3 34.1 79 28.4 0.0 4.0 N 0.00 29.768
01/04/2006 7:00 p 34.1 34.1 34.1 34.1 34.0 79 28.3 0.0 2.0 N 0.00 29.768
01/04/2006 7:10 p 34.0 34.0 34.0 34.1 33.9 80 28.5 1.0 3.0 N 0.00 29.768
01/04/2006 7:20 p 33.9 33.9 33.9 33.9 33.8 80 28.4 0.0 2.0 N 0.00 29.767
01/04/2006 7:30 p 33.7 33.7 33.7 33.8 33.6 81 28.5 0.0 3.0 N 0.00 29.760
01/04/2006 7:40 p 33.5 33.5 33.5 33.6 33.3 81 28.3 0.0 1.0 N 0.00 29.759
01/04/2006 7:50 p 33.3 33.3 33.3 33.3 33.2 82 28.4 0.0 1.0 N 0.00 29.759
01/04/2006 8:00 p 33.1 33.1 33.1 33.2 33.0 82 28.2 0.0 0.0 --- 0.00 29.755
01/04/2006 8:10 p 32.9 32.9 32.9 33.0 32.7 83 28.3 0.0 1.0 N 0.00 29.753
01/04/2006 8:20 p 32.8 32.8 32.8 33.0 32.7 84 28.5 0.0 0.0 --- 0.00 29.753
01/04/2006 8:30 p 33.0 33.0 33.0 33.1 32.9 84 28.7 0.0 0.0 --- 0.00 29.756
01/04/2006 8:40 p 33.2 33.2 33.2 33.3 33.1 84 28.9 0.0 0.0 --- 0.00 29.755
01/04/2006 8:50 p 33.5 33.5 33.5 33.6 33.3 84 29.2 0.0 0.0 --- 0.00 29.753
01/04/2006 9:00 p 33.7 33.7 33.7 33.8 33.5 84 29.4 0.0 0.0 --- 0.00 29.751
01/04/2006 9:10 p 33.8 33.8 33.8 33.9 33.7 84 29.5 0.0 0.0 --- 0.00 29.744
01/04/2006 9:20 p 34.0 34.0 34.0 34.1 33.9 84 29.7 0.0 0.0 --- 0.00 29.739
01/04/2006 9:30 p 34.2 34.2 34.2 34.3 34.1 85 30.2 0.0 0.0 --- 0.00 29.738
01/04/2006 9:40 p 34.4 34.4 34.4 34.5 34.3 84 30.1 0.0 0.0 --- 0.00 29.733
01/04/2006 9:50 p 34.6 34.6 34.6 34.7 34.5 85 30.6 0.0 5.0 N 0.00 29.729
01/04/2006 10:00 p 34.7 34.7 34.7 34.8 34.7 85 30.7 0.0 3.0 NNE 0.00 29.726
01/04/2006 10:10 p 34.8 34.8 34.8 34.8 34.7 85 30.8 0.0 1.0 NNE 0.00 29.720
01/04/2006 10:20 p 34.8 34.8 34.8 34.8 34.8 85 30.8 0.0 0.0 --- 0.00 29.714
01/04/2006 10:30 p 34.8 34.8 34.8 34.8 34.8 85 30.8 0.0 0.0 --- 0.00 29.709
01/04/2006 10:40 p 34.9 34.9 34.9 34.9 34.8 85 30.9 0.0 1.0 NNE 0.00 29.711
01/04/2006 10:50 p 34.9 34.9 34.9 34.9 34.8 86 31.1 0.0 0.0 --- 0.00 29.705
01/04/2006 11:00 p 35.0 35.0 35.0 35.1 34.9 86 31.2 0.0 2.0 NNE 0.00 29.699
01/04/2006 11:10 p 35.1 35.1 35.1 35.1 35.0 86 31.3 0.0 2.0 NNE 0.00 29.697
01/04/2006 11:20 p 35.3 35.3 35.3 35.6 35.1 89 32.4 0.0 0.0 --- 0.00 29.701
01/04/2006 11:30 p 35.5 35.5 35.5 35.6 35.4 88 32.3 0.0 0.0 --- 0.00 29.695
01/04/2006 11:40 p 35.5 35.5 35.5 35.6 35.4 89 32.6 0.0 0.0 --- 0.00 29.686
01/04/2006 11:50 p 35.5 35.5 35.5 35.6 35.5 89 32.6 0.0 0.0 --- 0.00 29.681
01/05/2006 12:00 a 35.7 35.7 35.7 36.0 35.5 91 33.3 0.0 0.0 --- 0.00 29.680
01/05/2006 12:10 a 35.9 35.9 35.9 36.0 35.8 90 33.3 0.0 1.0 NNE 0.00 29.677
01/05/2006 12:20 a 35.7 35.7 35.7 35.8 35.6 91 33.3 0.0 0.0 --- 0.00 29.672
01/05/2006 12:30 a 35.6 35.6 35.6 35.7 35.5 91 33.2 0.0 0.0 --- 0.00 29.671
01/05/2006 12:40 a 35.5 35.5 35.5 35.6 35.5 92 33.4 0.0 0.0 --- 0.00 29.667
01/05/2006 12:50 a 35.5 35.5 35.5 35.5 35.5 92 33.4 0.0 0.0 --- 0.00 29.660
01/05/2006 1:00 a 35.5 35.5 35.5 35.5 35.4 93 33.7 0.0 0.0 --- 0.00 29.656
01/05/2006 1:10 a 35.4 35.4 35.4 35.5 35.4 93 33.6 0.0 0.0 --- 0.00 29.648
01/05/2006 1:20 a 35.5 35.5 35.5 35.5 35.4 93 33.7 0.0 0.0 --- 0.00 29.648
01/05/2006 1:30 a 35.5 35.5 35.5 35.5 35.5 93 33.7 0.0 0.0 --- 0.00 29.643
01/05/2006 1:40 a 35.5 35.5 35.5 35.5 35.5 94 33.9 0.0 0.0 --- 0.00 29.637
01/05/2006 1:50 a 35.6 35.6 35.6 35.6 35.5 94 34.0 0.0 0.0 --- 0.00 29.639
01/05/2006 2:00 a 35.6 35.6 35.6 35.7 35.6 94 34.0 0.0 0.0 --- 0.00 29.636
01/05/2006 2:10 a 35.7 35.7 35.7 35.7 35.6 94 34.1 0.0 0.0 --- 0.00 29.633
01/05/2006 2:20 a 35.7 35.7 35.7 35.8 35.7 94 34.1 0.0 0.0 --- 0.00 29.628
01/05/2006 2:30 a 35.8 35.8 35.8 35.8 35.7 95 34.5 0.0 0.0 --- 0.00 29.630
01/05/2006 2:40 a 35.8 35.8 35.8 35.8 35.7 94 34.2 0.0 0.0 --- 0.00 29.624
01/05/2006 2:50 a 35.8 35.8 35.8 35.8 35.7 94 34.2 0.0 0.0 --- 0.00 29.621
01/05/2006 3:00 a 35.8 35.8 35.8 35.8 35.7 94 34.2 0.0 0.0 --- 0.00 29.620
01/05/2006 3:10 a 35.8 35.8 35.8 35.8 35.7 95 34.5 0.0 0.0 --- 0.00 29.616
01/05/2006 3:20 a 35.7 35.7 35.7 35.8 35.7 94 34.1 0.0 0.0 --- 0.00 29.600
01/05/2006 3:30 a 35.8 35.8 35.8 35.8 35.7 94 34.2 0.0 0.0 --- 0.00 29.600
01/05/2006 3:40 a 35.8 35.8 35.8 35.9 35.8 94 34.2 0.0 0.0 --- 0.00 29.602
01/05/2006 3:50 a 35.9 35.9 35.9 35.9 35.9 95 34.6 0.0 0.0 --- 0.00 29.603
01/05/2006 4:00 a 36.0 36.0 36.0 36.0 35.9 95 34.7 0.0 0.0 --- 0.00 29.603
01/05/2006 4:10 a 36.0 36.0 36.0 36.0 35.9 94 34.4 0.0 0.0 --- 0.00 29.592
01/05/2006 4:20 a 36.0 36.0 36.0 36.0 35.9 95 34.7 0.0 0.0 --- 0.00 29.593
01/05/2006 4:30 a 36.0 36.0 36.0 36.1 35.9 96 35.0 0.0 0.0 --- 0.00 29.593
01/05/2006 4:40 a 36.1 36.1 36.1 36.1 36.0 96 35.1 0.0 0.0 --- 0.00 29.587
01/05/2006 4:50 a 36.1 36.1 36.1 36.1 36.1 96 35.1 0.0 0.0 --- 0.01 29.582
01/05/2006 5:00 a 36.1 36.1 36.1 36.1 36.0 96 35.1 0.0 0.0 --- 0.01 29.578
01/05/2006 5:10 a 36.1 36.1 36.1 36.1 36.0 96 35.1 0.0 0.0 --- 0.00 29.575
01/05/2006 5:20 a 36.1 36.1 36.1 36.1 36.0 96 35.1 0.0 0.0 --- 0.00 29.574
01/05/2006 5:30 a 36.1 36.1 36.1 36.2 36.1 96 35.1 0.0 0.0 --- 0.00 29.574
01/05/2006 5:40 a 36.2 36.2 36.2 36.2 36.2 97 35.4 0.0 0.0 --- 0.00 29.568
01/05/2006 5:50 a 36.3 36.3 36.3 36.4 36.2 97 35.5 0.0 0.0 --- 0.00 29.573
01/05/2006 6:00 a 36.4 36.4 36.4 36.5 36.3 97 35.6 0.0 0.0 --- 0.00 29.567
01/05/2006 6:10 a 36.5 36.5 36.5 36.5 36.4 97 35.7 0.0 0.0 --- 0.00 29.565
01/05/2006 6:20 a 36.5 36.5 36.5 36.5 36.5 97 35.7 0.0 0.0 --- 0.00 29.561
01/05/2006 6:30 a 36.6 36.6 36.6 36.6 36.5 97 35.8 0.0 0.0 --- 0.00 29.557
01/05/2006 6:40 a 36.7 36.7 36.7 36.7 36.6 98 36.2 0.0 0.0 --- 0.00 29.560
01/05/2006 6:50 a 36.8 36.8 36.8 36.8 36.7 97 36.0 0.0 0.0 --- 0.00 29.562
01/05/2006 7:00 a 36.8 36.8 36.8 36.9 36.8 98 36.3 0.0 0.0 --- 0.00 29.562
01/05/2006 7:10 a 36.9 36.9 36.9 37.0 36.9 98 36.4 0.0 0.0 --- 0.00 29.559
01/05/2006 7:20 a 37.0 37.0 37.0 37.1 36.9 98 36.5 0.0 0.0 --- 0.00 29.564
01/05/2006 7:30 a 37.1 37.1 37.1 37.1 37.0 98 36.6 0.0 0.0 --- 0.00 29.567
01/05/2006 7:40 a 37.1 37.1 37.1 37.2 37.1 98 36.6 0.0 0.0 --- 0.00 29.563
01/05/2006 7:50 a 37.2 37.2 37.2 37.3 37.2 98 36.7 0.0 0.0 --- 0.00 29.558
01/05/2006 8:00 a 37.3 37.3 37.3 37.4 37.3 98 36.8 0.0 0.0 --- 0.00 29.561
01/05/2006 8:10 a 37.4 37.4 37.4 37.5 37.3 98 36.9 0.0 0.0 --- 0.00 29.560
01/05/2006 8:20 a 37.5 37.5 37.5 37.6 37.5 98 37.0 0.0 0.0 --- 0.00 29.563
01/05/2006 8:30 a 37.6 37.6 37.6 37.7 37.6 98 37.1 0.0 0.0 --- 0.00 29.563
01/05/2006 8:40 a 37.8 37.8 37.8 37.8 37.7 99 37.5 0.0 0.0 --- 0.00 29.567
01/05/2006 8:50 a 37.9 37.9 37.9 38.0 37.8 98 37.4 0.0 0.0 --- 0.00 29.569
01/05/2006 9:00 a 38.1 38.1 38.1 38.2 38.0 99 37.8 0.0 0.0 --- 0.00 29.579
01/05/2006 9:10 a 38.3 38.3 38.3 38.4 38.2 99 38.0 0.0 0.0 --- 0.00 29.575
01/05/2006 9:20 a 38.5 38.5 38.5 38.6 38.3 99 38.2 0.0 0.0 --- 0.00 29.577
01/05/2006 9:30 a 38.8 38.8 38.8 38.9 38.6 99 38.5 0.0 0.0 --- 0.00 29.580
01/05/2006 9:40 a 39.1 39.1 39.1 39.2 38.9 99 38.8 0.0 2.0 NNE 0.00 29.579
01/05/2006 9:50 a 39.2 39.2 39.2 39.3 39.2 99 38.9 0.0 2.0 NNE 0.00 29.584
01/05/2006 10:00 a 39.4 39.4 39.4 39.6 39.3 99 39.1 0.0 0.0 --- 0.00 29.587
01/05/2006 10:10 a 39.7 39.7 39.7 39.9 39.6 99 39.4 0.0 4.0 SE 0.00 29.585
01/05/2006 10:20 a 40.0 40.0 40.0 40.1 39.9 99 39.7 0.0 1.0 WNW 0.00 29.579
01/05/2006 10:30 a 40.3 40.3 40.3 40.4 40.1 99 40.0 0.0 1.0 --- 0.00 29.580
01/05/2006 10:40 a 40.6 40.6 40.6 40.8 40.4 99 40.3 0.0 1.0 WNW 0.00 29.577
01/05/2006 10:50 a 41.1 41.1 41.1 41.3 40.8 98 40.6 0.0 1.0 WNW 0.00 29.577
01/05/2006 11:00 a 41.6 41.6 41.6 41.8 41.3 98 41.1 0.0 2.0 WNW 0.00 29.578
01/05/2006 11:10 a 41.9 41.9 41.9 42.1 41.8 97 41.1 0.0 2.0 WNW 0.00 29.573
01/05/2006 11:20 a 42.3 42.3 42.3 42.7 42.1 95 41.0 0.0 0.0 --- 0.00 29.567
01/05/2006 11:30 a 42.9 42.9 42.9 43.1 42.7 94 41.3 0.0 0.0 --- 0.00 29.563
01/05/2006 11:40 a 43.4 43.4 43.4 43.8 43.1 93 41.5 0.0 0.0 --- 0.00 29.556
01/05/2006 11:50 a 44.4 44.4 44.4 45.1 43.8 89 41.4 0.0 4.0 WNW 0.00 29.549
01/05/2006 12:00 p 45.4 45.4 45.4 45.6 45.1 86 41.5 0.0 2.0 NNW 0.00 29.546
01/05/2006 12:10 p 45.8 45.8 45.8 46.0 45.6 84 41.2 0.0 2.0 NNW 0.00 29.542
01/05/2006 12:20 p 46.2 46.2 46.2 46.5 46.0 79 40.1 0.0 4.0 SE 0.00 29.537
01/05/2006 12:30 p 46.8 46.8 46.8 47.1 46.5 75 39.3 0.0 3.0 NNW 0.00 29.533
01/05/2006 12:40 p 47.3 47.3 47.3 47.4 47.1 71 38.4 0.0 3.0 E 0.00 29.531
01/05/2006 12:50 p 47.4 47.4 47.4 47.5 47.4 68 37.4 2.0 6.0 SE 0.00 29.522
01/05/2006 1:00 p 47.6 47.6 47.6 48.1 47.4 67 37.2 1.0 5.0 SE 0.00 29.518
01/05/2006 1:10 p 48.4 48.4 48.4 48.7 48.0 65 37.2 1.0 5.0 SE 0.00 29.514
01/05/2006 1:20 p 49.0 49.0 49.0 49.3 48.7 64 37.4 1.0 6.0 SE 0.00 29.517
01/05/2006 1:30 p 49.5 49.5 49.5 49.8 49.3 62 37.0 1.0 5.0 SE 0.00 29.510
01/05/2006 1:40 p 49.8 49.8 49.8 49.9 49.7 60 36.5 2.0 11.0 ESE 0.00 29.511
01/05/2006 1:50 p 49.9 49.9 49.9 50.0 49.8 60 36.6 2.0 7.0 SE 0.00 29.514
01/05/2006 2:00 p 49.8 49.8 49.8 50.0 49.8 61 36.9 2.0 9.0 SE 0.00 29.514
01/05/2006 2:10 p 49.8 49.8 49.8 49.9 49.8 61 36.9 1.0 6.0 SE 0.00 29.512
01/05/2006 2:20 p 49.8 49.8 49.8 49.9 49.8 61 36.9 2.0 8.0 SE 0.00 29.508
01/05/2006 2:30 p 49.8 49.8 49.8 49.8 49.6 60 36.5 2.0 7.0 SE 0.00 29.513
01/05/2006 2:40 p 49.4 49.4 49.4 49.6 49.1 60 36.1 3.0 7.0 SE 0.00 29.519
01/05/2006 2:50 p 48.8 48.8 48.8 49.1 48.7 61 36.0 2.0 6.0 SE 0.00 29.518
01/05/2006 3:00 p 48.8 48.8 48.8 49.0 48.7 62 36.4 2.0 5.0 SE 0.00 29.517
01/05/2006 3:10 p 49.1 49.1 49.1 49.3 48.9 62 36.7 1.0 4.0 SE 0.00 29.515
01/05/2006 3:20 p 49.3 49.3 49.3 49.4 49.2 63 37.3 1.0 4.0 SE 0.00 29.517
01/05/2006 3:30 p 48.9 48.9 48.9 49.2 48.6 62 36.5 2.0 7.0 SE 0.00 29.521
01/05/2006 3:40 p 48.6 48.6 48.6 48.7 48.5 63 36.6 2.0 5.0 ESE 0.00 29.524
01/05/2006 3:50 p 48.8 48.8 48.8 48.8 48.7 63 36.8 1.0 5.0 SE 0.00 29.526
01/05/2006 4:00 p 48.5 48.5 48.5 48.7 48.2 64 36.9 0.0 4.0 SE 0.00 29.525
01/05/2006 4:10 p 48.0 48.0 48.0 48.2 47.7 65 36.8 0.0 6.0 ESE 0.00 29.527
01/05/2006 4:20 p 47.5 47.5 47.5 47.7 47.4 63 35.5 1.0 4.0 ESE 0.00 29.529
01/05/2006 4:30 p 47.2 47.2 47.2 47.4 47.1 61 34.5 1.0 8.0 SE 0.00 29.539
01/05/2006 4:40 p 47.1 47.1 47.1 47.1 46.9 61 34.4 1.0 5.0 SE 0.00 29.542
01/05/2006 4:50 p 46.8 46.8 46.8 46.9 46.7 61 34.1 1.0 6.0 SE 0.00 29.537
01/05/2006 5:00 p 46.6 46.6 46.6 46.7 46.4 63 34.7 0.0 3.0 SE 0.00 29.545
01/05/2006 5:10 p 46.2 46.2 46.2 46.4 46.1 63 34.3 0.0 3.0 E 0.00 29.544
01/05/2006 5:20 p 46.0 46.0 46.0 46.1 46.0 63 34.1 0.0 3.0 N 0.00 29.549
01/05/2006 5:30 p 46.0 46.0 46.0 46.0 45.9 63 34.1 1.0 4.0 S 0.00 29.553
01/05/2006 5:40 p 45.9 45.9 45.9 45.9 45.7 63 34.0 1.0 4.0 SSE 0.00 29.553
01/05/2006 5:50 p 45.6 45.6 45.6 45.8 45.4 64 34.1 0.0 4.0 SE 0.00 29.557
01/05/2006 6:00 p 45.1 45.1 45.1 45.4 44.7 65 34.1 1.0 5.0 SE 0.00 29.559
01/05/2006 6:10 p 44.6 44.6 44.6 44.8 44.4 66 34.0 0.0 2.0 SE 0.00 29.557
01/05/2006 6:20 p 44.3 44.3 44.3 44.4 44.2 67 34.0 0.0 3.0 SE 0.00 29.554
01/05/2006 6:30 p 43.9 43.9 43.9 44.2 43.6 67 33.7 0.0 1.0 SE 0.00 29.556
01/05/2006 6:40 p 43.3 43.3 43.3 43.6 43.1 68 33.5 0.0 0.0 --- 0.00 29.565
01/05/2006 6:50 p 42.9 42.9 42.9 43.1 42.6 68 33.1 0.0 0.0 --- 0.00 29.561
01/05/2006 7:00 p 42.3 42.3 42.3 42.6 41.9 70 33.2 0.0 0.0 --- 0.00 29.562
01/05/2006 7:10 p 41.5 41.5 41.5 41.9 41.1 71 32.8 0.0 0.0 --- 0.00 29.566
01/05/2006 7:20 p 40.7 40.7 40.7 41.1 40.4 74 33.1 0.0 0.0 --- 0.00 29.567
01/05/2006 7:30 p 40.0 40.0 40.0 40.4 39.6 76 33.1 0.0 0.0 --- 0.00 29.567
01/05/2006 7:40 p 39.2 39.2 39.2 39.6 38.9 78 32.9 0.0 0.0 --- 0.00 29.569
01/05/2006 7:50 p 38.6 38.6 38.6 38.9 38.3 79 32.7 0.0 0.0 --- 0.00 29.573
01/05/2006 8:00 p 38.3 38.3 38.3 38.4 38.2 79 32.4 0.0 0.0 --- 0.00 29.576
01/05/2006 8:10 p 38.0 38.0 38.0 38.2 37.9 80 32.4 0.0 0.0 --- 0.00 29.579
01/05/2006 8:20 p 37.7 37.7 37.7 37.9 37.5 81 32.4 0.0 0.0 --- 0.00 29.575
01/05/2006 8:30 p 37.3 37.3 37.3 37.5 37.1 82 32.3 0.0 0.0 --- 0.00 29.573
01/05/2006 8:40 p 36.8 36.8 36.8 37.1 36.6 82 31.8 0.0 0.0 --- 0.00 29.572
01/05/2006 8:50 p 36.5 36.5 36.5 36.6 36.3 83 31.8 0.0 0.0 --- 0.00 29.574
01/05/2006 9:00 p 36.1 36.1 36.1 36.3 36.0 84 31.7 0.0 0.0 --- 0.00 29.570
01/05/2006 9:10 p 36.0 36.0 36.0 36.0 35.9 84 31.6 0.0 0.0 --- 0.00 29.569
01/05/2006 9:20 p 35.9 35.9 35.9 36.0 35.8 85 31.8 0.0 0.0 --- 0.00 29.568
01/05/2006 9:30 p 35.7 35.7 35.7 35.9 35.5 85 31.6 0.0 0.0 --- 0.00 29.565
01/05/2006 9:40 p 35.4 35.4 35.4 35.5 35.2 86 31.6 0.0 0.0 --- 0.00 29.568
01/05/2006 9:50 p 35.1 35.1 35.1 35.3 34.9 86 31.3 0.0 0.0 --- 0.00 29.559
01/05/2006 10:00 p 34.8 34.8 34.8 34.9 34.6 86 31.0 0.0 0.0 --- 0.00 29.563
01/05/2006 10:10 p 34.5 34.5 34.5 34.6 34.4 88 31.3 0.0 0.0 --- 0.00 29.568
01/05/2006 10:20 p 34.4 34.4 34.4 34.5 34.3 88 31.2 0.0 0.0 --- 0.00 29.567
01/05/2006 10:30 p 34.1 34.1 34.1 34.3 34.0 88 30.9 0.0 0.0 --- 0.00 29.569
01/05/2006 10:40 p 33.9 33.9 33.9 34.0 33.8 88 30.7 0.0 0.0 --- 0.00 29.568
01/05/2006 10:50 p 33.7 33.7 33.7 33.8 33.7 89 30.8 0.0 0.0 --- 0.00 29.571
01/05/2006 11:00 p 33.7 33.7 33.7 33.7 33.6 89 30.8 0.0 0.0 --- 0.00 29.576
01/05/2006 11:10 p 33.5 33.5 33.5 33.6 33.5 90 30.9 0.0 0.0 --- 0.00 29.568
01/05/2006 11:20 p 33.4 33.4 33.4 33.5 33.4 90 30.8 0.0 0.0 --- 0.00 29.574
01/05/2006 11:30 p 33.3 33.3 33.3 33.4 33.2 90 30.7 0.0 0.0 --- 0.00 29.571
01/05/2006 11:40 p 33.1 33.1 33.1 33.2 33.1 90 30.5 0.0 0.0 --- 0.00 29.574
01/05/2006 11:50 p 32.9 32.9 32.9 33.1 32.7 90 30.3 0.0 0.0 --- 0.00 29.571
01/06/2006 12:00 a 32.7 32.7 32.7 32.8 32.7 91 30.4 0.0 0.0 --- 0.00 29.571
01/06/2006 12:10 a 32.8 32.8 32.8 32.9 32.7 92 30.7 0.0 0.0 --- 0.00 29.569
01/06/2006 12:20 a 33.0 33.0 33.0 33.1 32.9 92 30.9 0.0 0.0 --- 0.00 29.573
01/06/2006 12:30 a 33.2 33.2 33.2 33.3 33.0 92 31.1 0.0 0.0 --- 0.00 29.580
01/06/2006 12:40 a 33.4 33.4 33.4 33.5 33.3 92 31.3 0.0 0.0 --- 0.00 29.580
01/06/2006 12:50 a 33.7 33.7 33.7 33.8 33.5 93 31.9 0.0 0.0 --- 0.00 29.584
01/06/2006 1:00 a 34.1 34.1 34.1 34.4 33.8 93 32.3 0.0 0.0 --- 0.00 29.588
01/06/2006 1:10 a 34.6 34.6 34.6 34.8 34.4 92 32.5 0.0 0.0 --- 0.00 29.585
01/06/2006 1:20 a 35.0 35.0 35.0 35.2 34.7 92 32.9 0.0 0.0 --- 0.00 29.585
01/06/2006 1:30 a 35.4 35.4 35.4 35.6 35.2 91 33.0 0.0 0.0 --- 0.00 29.584
01/06/2006 1:40 a 35.8 35.8 35.8 35.9 35.6 90 33.2 0.0 0.0 --- 0.00 29.579
01/06/2006 1:50 a 36.1 36.1 36.1 36.1 35.9 89 33.2 0.0 0.0 --- 0.00 29.578
01/06/2006 2:00 a 36.1 36.1 36.1 36.1 36.1 88 32.9 0.0 0.0 --- 0.00 29.571
01/06/2006 2:10 a 36.1 36.1 36.1 36.1 36.1 88 32.9 0.0 0.0 --- 0.00 29.568
01/06/2006 2:20 a 36.1 36.1 36.1 36.1 36.1 88 32.9 0.0 0.0 --- 0.00 29.569
01/06/2006 2:30 a 36.2 36.2 36.2 36.2 36.1 88 33.0 0.0 0.0 --- 0.00 29.565
01/06/2006 2:40 a 36.2 36.2 36.2 36.3 36.2 88 33.0 0.0 0.0 --- 0.00 29.564
01/06/2006 2:50 a 36.3 36.3 36.3 36.3 36.2 88 33.1 0.0 0.0 --- 0.00 29.564
01/06/2006 3:00 a 36.3 36.3 36.3 36.4 36.3 89 33.4 0.0 0.0 --- 0.00 29.564
01/06/2006 3:10 a 36.4 36.4 36.4 36.4 36.4 89 33.5 0.0 0.0 --- 0.00 29.559
01/06/2006 3:20 a 36.5 36.5 36.5 36.6 36.4 89 33.6 0.0 0.0 --- 0.00 29.555
01/06/2006 3:30 a 36.6 36.6 36.6 36.7 36.5 89 33.7 0.0 0.0 --- 0.00 29.557
01/06/2006 3:40 a 36.7 36.7 36.7 36.8 36.6 89 33.8 0.0 0.0 --- 0.00 29.553
01/06/2006 3:50 a 36.7 36.7 36.7 36.8 36.7 89 33.8 0.0 0.0 --- 0.00 29.560
01/06/2006 4:00 a 37.1 37.1 37.1 37.5 36.7 88 33.9 0.0 2.0 SE 0.00 29.559
01/06/2006 4:10 a 38.1 38.1 38.1 38.6 37.5 83 33.4 1.0 2.0 SE 0.00 29.557
01/06/2006 4:20 a 38.9 38.9 38.9 39.1 38.6 81 33.6 1.0 4.0 SE 0.00 29.559
01/06/2006 4:30 a 39.2 39.2 39.2 39.3 39.1 80 33.6 1.0 3.0 SSE 0.00 29.561
01/06/2006 4:40 a 39.3 39.3 39.3 39.3 39.2 77 32.7 1.0 4.0 SW 0.00 29.556
01/06/2006 4:50 a 39.1 39.1 39.1 39.2 39.0 76 32.2 2.0 7.0 SE 0.00 29.561
01/06/2006 5:00 a 38.9 38.9 38.9 39.0 38.8 75 31.7 1.0 4.0 SSW 0.00 29.562
01/06/2006 5:10 a 38.7 38.7 38.7 38.8 38.5 75 31.5 1.0 3.0 S 0.00 29.562
01/06/2006 5:20 a 38.4 38.4 38.4 38.5 38.2 74 30.8 1.0 3.0 SSW 0.00 29.565
01/06/2006 5:30 a 38.1 38.1 38.1 38.2 38.0 74 30.6 0.0 3.0 SSW 0.00 29.571
01/06/2006 5:40 a 37.9 37.9 37.9 38.0 37.9 73 30.0 1.0 4.0 SE 0.00 29.572
01/06/2006 5:50 a 37.8 37.8 37.8 37.9 37.8 72 29.6 1.0 4.0 SE 0.00 29.569
01/06/2006 6:00 a 37.7 37.7 37.7 37.8 37.7 72 29.5 0.0 3.0 SSE 0.00 29.570
01/06/2006 6:10 a 37.6 37.6 37.6 37.7 37.6 72 29.4 1.0 4.0 SW 0.00 29.571
01/06/2006 6:20 a 37.5 37.5 37.5 37.6 37.5 73 29.6 0.0 3.0 SSE 0.00 29.577
01/06/2006 6:30 a 37.4 37.4 37.4 37.5 37.4 72 29.2 0.0 2.0 SSE 0.00 29.578
01/06/2006 6:40 a 37.4 37.4 37.4 37.4 37.4 72 29.2 0.0 3.0 S 0.00 29.580
01/06/2006 6:50 a 37.4 37.4 37.4 37.4 37.4 72 29.2 0.0 2.0 S 0.00 29.581
01/06/2006 7:00 a 37.4 37.4 37.4 37.4 37.4 71 28.9 1.0 5.0 SE 0.00 29.582
01/06/2006 7:10 a 37.4 37.4 37.4 37.5 37.4 71 28.9 1.0 3.0 SE 0.00 29.592
01/06/2006 7:20 a 37.3 37.3 37.3 37.4 37.3 70 28.4 1.0 4.0 SE 0.00 29.593
01/06/2006 7:30 a 37.3 37.3 37.3 37.3 37.2 70 28.4 1.0 4.0 S 0.00 29.588
01/06/2006 7:40 a 37.2 37.2 37.2 37.3 37.2 71 28.7 0.0 2.0 S 0.00 29.596
01/06/2006 7:50 a 37.2 37.2 37.2 37.2 37.1 70 28.3 1.0 3.0 SE 0.00 29.600
01/06/2006 8:00 a 37.2 37.2 37.2 37.2 37.1 70 28.3 1.0 4.0 SE 0.00 29.601
01/06/2006 8:10 a 37.2 37.2 37.2 37.2 37.1 70 28.3 1.0 4.0 SE 0.00 29.606
01/06/2006 8:20 a 37.2 37.2 37.2 37.2 37.1 70 28.3 1.0 7.0 SE 0.00 29.603
01/06/2006 8:30 a 37.1 37.1 37.1 37.2 37.1 69 27.9 1.0 4.0 SE 0.00 29.605
01/06/2006 8:40 a 37.1 37.1 37.1 37.2 37.1 70 28.2 1.0 5.0 SE 0.00 29.600
01/06/2006 8:50 a 37.1 37.1 37.1 37.2 37.1 70 28.2 1.0 5.0 SE 0.00 29.609
01/06/2006 9:00 a 37.3 37.3 37.3 37.3 37.2 69 28.1 1.0 5.0 SSE 0.00 29.612
01/06/2006 9:10 a 37.4 37.4 37.4 37.5 37.3 69 28.2 2.0 5.0 S 0.00 29.614
01/06/2006 9:20 a 37.5 37.5 37.5 37.5 37.4 69 28.3 1.0 6.0 SSE 0.00 29.615
01/06/2006 9:30 a 37.5 37.5 37.5 37.6 37.5 69 28.3 2.0 5.0 SSE 0.00 29.614
01/06/2006 9:40 a 37.6 37.6 37.6 37.7 37.6 68 28.0 1.0 4.0 SSE 0.00 29.614
01/06/2006 9:50 a 37.7 37.7 37.7 37.8 37.7 69 28.5 1.0 5.0 SE 0.00 29.621
01/06/2006 10:00 a 37.9 37.9 37.9 38.0 37.8 68 28.3 1.0 5.0 SE 0.00 29.622
01/06/2006 10:10 a 38.0 38.0 38.0 38.1 38.0 68 28.4 1.0 4.0 SSE 0.00 29.622
01/06/2006 10:20 a 38.1 38.1 38.1 38.2 38.0 67 28.1 1.0 5.0 SE 0.00 29.618
01/06/2006 10:30 a 38.2 38.2 38.2 38.3 38.1 67 28.2 1.0 4.0 SE 0.00 29.614
01/06/2006 10:40 a 38.4 38.4 38.4 38.5 38.3 66 28.0 2.0 6.0 S 0.00 29.613
01/06/2006 10:50 a 38.6 38.6 38.6 38.9 38.5 66 28.2 1.0 4.0 S 0.00 29.618
01/06/2006 11:00 a 39.0 39.0 39.0 39.0 38.9 65 28.2 1.0 5.0 SE 0.00 29.615
01/06/2006 11:10 a 39.1 39.1 39.1 39.1 39.0 64 28.0 2.0 9.0 SSE 0.00 29.607
01/06/2006 11:20 a 39.1 39.1 39.1 39.1 39.1 64 28.0 2.0 5.0 SSW 0.00 29.602
01/06/2006 11:30 a 39.2 39.2 39.2 39.3 39.1 64 28.1 3.0 8.0 SSE 0.00 29.599
01/06/2006 11:40 a 39.3 39.3 39.3 39.3 39.2 63 27.8 3.0 10.0 SSW 0.00 29.598
01/06/2006 11:50 a 39.4 39.4 39.4 39.5 39.3 63 27.9 1.0 6.0 SE 0.00 29.592
01/06/2006 12:00 p 39.6 39.6 39.6 39.7 39.5 61 27.3 2.0 7.0 SE 0.00 29.588
01/06/2006 12:10 p 39.8 39.8 39.8 39.8 39.7 60 27.1 3.0 10.0 SE 0.00 29.583
01/06/2006 12:20 p 39.7 39.7 39.7 39.8 39.6 59 26.6 2.0 7.0 SSE 0.00 29.579
01/06/2006 12:30 p 39.5 39.5 39.5 39.6 39.5 58 26.0 4.0 10.0 SE 0.00 29.578
01/06/2006 12:40 p 39.6 39.6 39.6 39.8 39.4 58 26.1 3.0 8.0 SE 0.00 29.571
01/06/2006 12:50 p 40.3 40.3 40.3 40.6 39.8 57 26.3 3.0 11.0 SE 0.00 29.569
01/06/2006 1:00 p 41.0 41.0 41.0 41.1 40.6 57 26.9 2.0 9.0 SE 0.00 29.567
01/06/2006 1:10 p 40.7 40.7 40.7 41.0 40.3 56 26.2 3.0 8.0 SSW 0.00 29.563
01/06/2006 1:20 p 40.1 40.1 40.1 40.3 40.1 57 26.1 2.0 6.0 SSW 0.00 29.557
01/06/2006 1:30 p 40.3 40.3 40.3 40.5 40.1 57 26.3 2.0 5.0 SE 0.00 29.553
01/06/2006 1:40 p 40.7 40.7 40.7 40.8 40.5 55 25.8 3.0 9.0 SE 0.00 29.550
01/06/2006 1:50 p 40.7 40.7 40.7 40.8 40.7 55 25.8 3.0 9.0 SE 0.00 29.548
01/06/2006 2:00 p 40.7 40.7 40.7 40.7 40.5 53 24.9 3.0 10.0 SE 0.00 29.553
01/06/2006 2:10 p 40.3 40.3 40.3 40.5 40.3 54 25.0 2.0 4.0 SSE 0.00 29.556
01/06/2006 2:20 p 40.0 40.0 40.0 40.3 39.7 54 24.7 3.0 8.0 S 0.00 29.559
01/06/2006 2:30 p 39.5 39.5 39.5 39.8 39.3 54 24.2 3.0 8.0 SSW 0.00 29.559
01/06/2006 2:40 p 39.3 39.3 39.3 39.4 39.2 55 24.5 3.0 8.0 SE 0.00 29.560
01/06/2006 2:50 p 39.1 39.1 39.1 39.2 39.1 54 23.9 2.0 7.0 SE 0.00 29.564
01/06/2006 3:00 p 39.0 39.0 39.0 39.1 38.9 53 23.3 3.0 7.0 SSW 0.00 29.566
01/06/2006 3:10 p 38.9 38.9 38.9 38.9 38.8 53 23.2 3.0 9.0 SE 0.00 29.573
01/06/2006 3:20 p 38.9 38.9 38.9 39.0 38.8 53 23.2 2.0 8.0 SE 0.00 29.571
01/06/2006 3:30 p 38.9 38.9 38.9 39.0 38.9 52 22.8 2.0 8.0 SE 0.00 29.574
01/06/2006 3:40 p 38.9 38.9 38.9 38.9 38.8 53 23.2 2.0 6.0 S 0.00 29.581
01/06/2006 3:50 p 38.9 38.9 38.9 38.9 38.8 52 22.8 2.0 7.0 SE 0.00 29.588
01/06/2006 4:00 p 38.7 38.7 38.7 38.9 38.6 52 22.6 3.0 9.0 SE 0.00 29.589
01/06/2006 4:10 p 38.4 38.4 38.4 38.6 38.3 53 22.8 2.0 5.0 SE 0.00 29.592
01/06/2006 4:20 p 38.2 38.2 38.2 38.3 38.1 53 22.6 2.0 8.0 SE 0.00 29.599
01/06/2006 4:30 p 37.9 37.9 37.9 38.1 37.6 54 22.8 3.0 7.0 SE 0.00 29.604
01/06/2006 4:40 p 37.6 37.6 37.6 37.7 37.5 55 22.9 3.0 11.0 SE 0.00 29.608
01/06/2006 4:50 p 37.3 37.3 37.3 37.5 37.1 53 21.8 3.0 7.0 SSW 0.00 29.613
01/06/2006 5:00 p 36.9 36.9 36.9 37.1 36.8 54 21.8 2.0 7.0 SE 0.00 29.616
01/06/2006 5:10 p 36.8 36.8 36.8 36.8 36.8 54 21.7 2.0 5.0 SE 0.00 29.618
01/06/2006 5:20 p 36.7 36.7 36.7 36.8 36.6 55 22.1 2.0 9.0 SSW 0.00